TAP398 SBGR-LPPT
Flight info
| Callsign | TAP398 |
|---|---|
| Flight time | 8h 34m |
| Altitude | 31000 |
| Route | NUXEL UZ23 ILPIR UZ72 EDNES UN866 ARTIG/N0496F330 UN866 DEKON/N0493F340 UN866 AMDOL/N0489F350 UN866 TENPA N866 GOMER/N0479F360 N866 KONBA UN866 BEXAL DCT LUVUP DCT ESP |
| Aircraft | L101/H-SDFHIJ2RWXY/LB1 |
Departure
| Time | 2026-05-07 09:20 |
|---|---|
| Airport | São Paulo/Guarulhos–Governor André Franco Montoro International Airport (SBGR) |
Arrival
| Time | 2026-05-07 17:55 |
|---|---|
| Airport | Lisbon Humberto Delgado Airport (LPPT) |
| Time | Latitude | Longitude | Altitude | Speed | Heading |
|---|---|---|---|---|---|
| 2026-05-07 08:22 | -23.42703 | -46.48094 | 2469 ft | 0 kts | 85° |
| 2026-05-07 09:02 | -23.42704 | -46.48109 | 2475 ft | 4 kts | 90° |
| 2026-05-07 09:02 | -23.42701 | -46.48138 | 2469 ft | 4 kts | 106° |
| 2026-05-07 09:02 | -23.42690 | -46.48163 | 2474 ft | 4 kts | 137° |
| 2026-05-07 09:03 | -23.42678 | -46.48173 | 2473 ft | 0 kts | 163° |
| 2026-05-07 09:12 | -23.42681 | -46.48171 | 2474 ft | 1 kts | 163° |
| 2026-05-07 09:12 | -23.42698 | -46.48166 | 2474 ft | 3 kts | 166° |
| 2026-05-07 09:12 | -23.42727 | -46.48162 | 2475 ft | 5 kts | 173° |
| 2026-05-07 09:12 | -23.42770 | -46.48156 | 2474 ft | 7 kts | 173° |
| 2026-05-07 09:13 | -23.42825 | -46.48151 | 2472 ft | 9 kts | 175° |
| 2026-05-07 09:13 | -23.42887 | -46.48146 | 2471 ft | 8 kts | 175° |
| 2026-05-07 09:13 | -23.42949 | -46.48140 | 2473 ft | 10 kts | 175° |
| 2026-05-07 09:13 | -23.43021 | -46.48133 | 2474 ft | 11 kts | 174° |
| 2026-05-07 09:14 | -23.43097 | -46.48134 | 2475 ft | 10 kts | 204° |
| 2026-05-07 09:14 | -23.43132 | -46.48196 | 2472 ft | 10 kts | 252° |
| 2026-05-07 09:14 | -23.43153 | -46.48270 | 2472 ft | 11 kts | 254° |
| 2026-05-07 09:14 | -23.43176 | -46.48355 | 2474 ft | 13 kts | 248° |
| 2026-05-07 09:15 | -23.43247 | -46.48382 | 2474 ft | 12 kts | 166° |
| 2026-05-07 09:15 | -23.43296 | -46.48367 | 2474 ft | 0 kts | 162° |
| 2026-05-07 09:17 | -23.43304 | -46.48364 | 2473 ft | 4 kts | 162° |
| 2026-05-07 09:17 | -23.43354 | -46.48347 | 2472 ft | 11 kts | 163° |
| 2026-05-07 09:18 | -23.43419 | -46.48326 | 2472 ft | 3 kts | 156° |
| 2026-05-07 09:18 | -23.43435 | -46.48307 | 2468 ft | 4 kts | 118° |
| 2026-05-07 09:18 | -23.43433 | -46.48274 | 2467 ft | 5 kts | 64° |
| 2026-05-07 09:18 | -23.43411 | -46.48250 | 2469 ft | 4 kts | 46° |
| 2026-05-07 09:19 | -23.43401 | -46.48228 | 2469 ft | 0 kts | 70° |
| 2026-05-07 09:19 | -23.43384 | -46.48174 | 2471 ft | 29 kts | 73° |
| 2026-05-07 09:19 | -23.43267 | -46.47733 | 2471 ft | 92 kts | 74° |
| 2026-05-07 09:20 | -23.43026 | -46.46856 | 2472 ft | 148 kts | 75° |
| 2026-05-07 09:20 | -23.42698 | -46.45607 | 2554 ft | 189 kts | 73° |
| 2026-05-07 09:20 | -23.42320 | -46.44163 | 3074 ft | 207 kts | 73° |
| 2026-05-07 09:20 | -23.41904 | -46.42640 | 3758 ft | 218 kts | 70° |
| 2026-05-07 09:21 | -23.41414 | -46.41027 | 4289 ft | 232 kts | 68° |
| 2026-05-07 09:21 | -23.40872 | -46.39302 | 4652 ft | 249 kts | 68° |
| 2026-05-07 09:21 | -23.40218 | -46.37497 | 5001 ft | 263 kts | 63° |
| 2026-05-07 09:21 | -23.39373 | -46.35691 | 5497 ft | 274 kts | 59° |
| 2026-05-07 09:22 | -23.38400 | -46.33863 | 6195 ft | 281 kts | 58° |
| 2026-05-07 09:22 | -23.37370 | -46.32051 | 7022 ft | 279 kts | 57° |
| 2026-05-07 09:22 | -23.36340 | -46.30281 | 7784 ft | 273 kts | 57° |
| 2026-05-07 09:22 | -23.35344 | -46.28523 | 8384 ft | 273 kts | 58° |
| 2026-05-07 09:23 | -23.34364 | -46.26742 | 8916 ft | 279 kts | 58° |
| 2026-05-07 09:23 | -23.33364 | -46.24923 | 9393 ft | 284 kts | 58° |
| 2026-05-07 09:23 | -23.32349 | -46.23116 | 10196 ft | 278 kts | 57° |
| 2026-05-07 09:23 | -23.31304 | -46.21288 | 10500 ft | 292 kts | 57° |
| 2026-05-07 09:24 | -23.30186 | -46.19353 | 10604 ft | 311 kts | 57° |
| 2026-05-07 09:24 | -23.29003 | -46.17305 | 10723 ft | 328 kts | 57° |
| 2026-05-07 09:24 | -23.27756 | -46.15148 | 10834 ft | 345 kts | 57° |
| 2026-05-07 09:24 | -23.26451 | -46.12887 | 10955 ft | 361 kts | 57° |
| 2026-05-07 09:25 | -23.25085 | -46.10523 | 11099 ft | 376 kts | 57° |
| 2026-05-07 09:25 | -23.23690 | -46.08148 | 11665 ft | 374 kts | 54° |
| 2026-05-07 09:25 | -23.21969 | -46.06056 | 12361 ft | 373 kts | 39° |
| 2026-05-07 09:25 | -23.19737 | -46.04542 | 12580 ft | 384 kts | 26° |
| 2026-05-07 09:26 | -23.17278 | -46.03381 | 13074 ft | 385 kts | 23° |
| 2026-05-07 09:26 | -23.14808 | -46.02282 | 13712 ft | 384 kts | 22° |
| 2026-05-07 09:26 | -23.12206 | -46.01385 | 13884 ft | 397 kts | 13° |
| 2026-05-07 09:26 | -23.09469 | -46.00906 | 14384 ft | 397 kts | 8° |
| 2026-05-07 09:27 | -23.06747 | -46.00526 | 15053 ft | 394 kts | 9° |
| 2026-05-07 09:27 | -23.04007 | -46.00060 | 15267 ft | 404 kts | 11° |
| 2026-05-07 09:27 | -22.98426 | -45.99067 | 16332 ft | 404 kts | 9° |
| 2026-05-07 09:28 | -22.95641 | -45.98664 | 16581 ft | 414 kts | 8° |
| 2026-05-07 09:28 | -22.92760 | -45.98296 | 17018 ft | 417 kts | 7° |
| 2026-05-07 09:28 | -22.89900 | -45.97913 | 17726 ft | 414 kts | 9° |
| 2026-05-07 09:28 | -22.87043 | -45.97325 | 17950 ft | 424 kts | 14° |
| 2026-05-07 09:29 | -22.85127 | -45.96821 | 18200 ft | 427 kts | 15° |
| 2026-05-07 09:29 | -22.82262 | -45.96025 | 18837 ft | 424 kts | 15° |
| 2026-05-07 09:29 | -22.79371 | -45.95262 | 19081 ft | 433 kts | 14° |
| 2026-05-07 09:29 | -22.76388 | -45.94524 | 19369 ft | 440 kts | 13° |
| 2026-05-07 09:30 | -22.73444 | -45.93808 | 20012 ft | 437 kts | 13° |
| 2026-05-07 09:30 | -22.70461 | -45.93064 | 20268 ft | 445 kts | 13° |
| 2026-05-07 09:30 | -22.67419 | -45.92284 | 20622 ft | 450 kts | 14° |
| 2026-05-07 09:30 | -22.64385 | -45.91499 | 21368 ft | 446 kts | 13° |
| 2026-05-07 09:31 | -22.61346 | -45.90714 | 21670 ft | 454 kts | 13° |
| 2026-05-07 09:31 | -22.58233 | -45.89914 | 21918 ft | 462 kts | 13° |
| 2026-05-07 09:31 | -22.55108 | -45.89115 | 22584 ft | 459 kts | 13° |
| 2026-05-07 09:31 | -22.51975 | -45.88313 | 22895 ft | 468 kts | 13° |
| 2026-05-07 09:32 | -22.48781 | -45.87495 | 23262 ft | 473 kts | 13° |
| 2026-05-07 09:32 | -22.45622 | -45.86685 | 23917 ft | 471 kts | 13° |
| 2026-05-07 09:32 | -22.42487 | -45.85880 | 24038 ft | 452 kts | 13° |
| 2026-05-07 09:32 | -22.39472 | -45.85105 | 24134 ft | 441 kts | 12° |
| 2026-05-07 09:33 | -22.36484 | -45.84339 | 24258 ft | 440 kts | 12° |
| 2026-05-07 09:33 | -22.33500 | -45.83577 | 24362 ft | 441 kts | 13° |
| 2026-05-07 09:33 | -22.30565 | -45.82628 | 24447 ft | 442 kts | 25° |
| 2026-05-07 09:33 | -22.27943 | -45.80935 | 24519 ft | 438 kts | 39° |
| 2026-05-07 09:34 | -22.25555 | -45.78859 | 24678 ft | 442 kts | 39° |
| 2026-05-07 09:34 | -22.23106 | -45.76884 | 24798 ft | 444 kts | 36° |
| 2026-05-07 09:34 | -22.20551 | -45.74994 | 24898 ft | 446 kts | 35° |
| 2026-05-07 09:34 | -22.18000 | -45.73073 | 25030 ft | 446 kts | 37° |
| 2026-05-07 09:35 | -22.15509 | -45.71062 | 25133 ft | 448 kts | 39° |
| 2026-05-07 09:35 | -22.13057 | -45.68983 | 25236 ft | 449 kts | 40° |
| 2026-05-07 09:35 | -22.10614 | -45.66878 | 25373 ft | 450 kts | 40° |
| 2026-05-07 09:35 | -22.08150 | -45.64763 | 25474 ft | 451 kts | 40° |
| 2026-05-07 09:36 | -22.05682 | -45.62653 | 25595 ft | 452 kts | 40° |
| 2026-05-07 09:36 | -22.03247 | -45.60568 | 25711 ft | 454 kts | 40° |
| 2026-05-07 09:36 | -22.00771 | -45.58442 | 25815 ft | 455 kts | 40° |
| 2026-05-07 09:36 | -21.98297 | -45.56314 | 25946 ft | 456 kts | 40° |
| 2026-05-07 09:37 | -21.95782 | -45.54151 | 26051 ft | 468 kts | 40° |
| 2026-05-07 09:37 | -21.93204 | -45.51933 | 26177 ft | 480 kts | 40° |
| 2026-05-07 09:37 | -21.90560 | -45.49660 | 26300 ft | 492 kts | 40° |
| 2026-05-07 09:37 | -21.87853 | -45.47334 | 26419 ft | 503 kts | 40° |
| 2026-05-07 09:38 | -21.85121 | -45.44989 | 26776 ft | 508 kts | 40° |
| 2026-05-07 09:38 | -21.82360 | -45.42625 | 27306 ft | 509 kts | 40° |
| 2026-05-07 09:38 | -21.79565 | -45.40228 | 27516 ft | 517 kts | 40° |
| 2026-05-07 09:38 | -21.76745 | -45.37810 | 28081 ft | 517 kts | 40° |
| 2026-05-07 09:39 | -21.73914 | -45.35383 | 28321 ft | 524 kts | 40° |
| 2026-05-07 09:39 | -21.71053 | -45.32930 | 28768 ft | 525 kts | 40° |
| 2026-05-07 09:39 | -21.68174 | -45.30465 | 29074 ft | 531 kts | 40° |
| 2026-05-07 09:39 | -21.65323 | -45.28028 | 29684 ft | 528 kts | 40° |
| 2026-05-07 09:40 | -21.62441 | -45.25568 | 30172 ft | 530 kts | 41° |
| 2026-05-07 09:40 | -21.59550 | -45.23097 | 30562 ft | 530 kts | 41° |
| 2026-05-07 09:40 | -21.56669 | -45.20636 | 31040 ft | 531 kts | 41° |
| 2026-05-07 09:40 | -21.53750 | -45.18147 | 31150 ft | 539 kts | 41° |
| 2026-05-07 09:41 | -21.50799 | -45.15632 | 31153 ft | 540 kts | 41° |
| 2026-05-07 09:41 | -21.44916 | -45.10615 | 31175 ft | 541 kts | 41° |
| 2026-05-07 09:42 | -21.39021 | -45.05592 | 31179 ft | 541 kts | 41° |
| 2026-05-07 09:42 | -21.33122 | -45.00577 | 31183 ft | 541 kts | 41° |
| 2026-05-07 09:43 | -21.27259 | -44.95596 | 31175 ft | 540 kts | 41° |
| 2026-05-07 09:43 | -21.21355 | -44.90586 | 31179 ft | 541 kts | 41° |
| 2026-05-07 09:44 | -21.15352 | -44.85735 | 31176 ft | 541 kts | 38° |
| 2026-05-07 09:44 | -21.09199 | -44.81057 | 31178 ft | 541 kts | 38° |
| 2026-05-07 09:45 | -21.03088 | -44.76317 | 31181 ft | 541 kts | 38° |
| 2026-05-07 09:45 | -20.97026 | -44.71608 | 31181 ft | 541 kts | 38° |
| 2026-05-07 09:46 | -20.90920 | -44.66879 | 31183 ft | 541 kts | 38° |
| 2026-05-07 09:46 | -20.84820 | -44.62156 | 31182 ft | 541 kts | 38° |
| 2026-05-07 09:47 | -20.78746 | -44.57462 | 31182 ft | 541 kts | 38° |
| 2026-05-07 09:47 | -20.72642 | -44.52747 | 31187 ft | 541 kts | 38° |
| 2026-05-07 09:48 | -20.66535 | -44.48037 | 31183 ft | 541 kts | 38° |
| 2026-05-07 09:48 | -20.60420 | -44.43328 | 31183 ft | 541 kts | 38° |
| 2026-05-07 09:49 | -20.54302 | -44.38614 | 31181 ft | 541 kts | 38° |
| 2026-05-07 09:49 | -20.48199 | -44.33913 | 31183 ft | 541 kts | 38° |
| 2026-05-07 09:50 | -20.42116 | -44.29243 | 31184 ft | 541 kts | 38° |
| 2026-05-07 09:50 | -20.36007 | -44.24557 | 31180 ft | 541 kts | 38° |
| 2026-05-07 09:51 | -20.29899 | -44.19867 | 31182 ft | 540 kts | 39° |
| 2026-05-07 09:51 | -20.23797 | -44.15186 | 31179 ft | 540 kts | 38° |
| 2026-05-07 09:52 | -20.17689 | -44.10506 | 31177 ft | 540 kts | 39° |
| 2026-05-07 09:52 | -20.11624 | -44.05870 | 31187 ft | 540 kts | 39° |
| 2026-05-07 09:53 | -20.05514 | -44.01199 | 31196 ft | 540 kts | 39° |
| 2026-05-07 09:53 | -19.99407 | -43.96535 | 31201 ft | 540 kts | 39° |
| 2026-05-07 09:54 | -19.93299 | -43.91868 | 31206 ft | 540 kts | 39° |
| 2026-05-07 09:54 | -19.87190 | -43.87196 | 31208 ft | 540 kts | 39° |
| 2026-05-07 09:55 | -19.81065 | -43.82555 | 31210 ft | 540 kts | 39° |
| 2026-05-07 09:55 | -19.74984 | -43.77935 | 31196 ft | 540 kts | 39° |
| 2026-05-07 09:56 | -19.68868 | -43.73288 | 31186 ft | 540 kts | 39° |
| 2026-05-07 09:56 | -19.62746 | -43.68643 | 31193 ft | 540 kts | 39° |
| 2026-05-07 09:57 | -19.56660 | -43.64028 | 31185 ft | 540 kts | 39° |
| 2026-05-07 09:57 | -19.50549 | -43.59399 | 31181 ft | 540 kts | 39° |
| 2026-05-07 09:58 | -19.44422 | -43.54762 | 31176 ft | 541 kts | 39° |
| 2026-05-07 09:58 | -19.38294 | -43.50129 | 31172 ft | 540 kts | 39° |
| 2026-05-07 09:59 | -19.32031 | -43.45717 | 31149 ft | 544 kts | 27° |
| 2026-05-07 09:59 | -19.24872 | -43.43097 | 31205 ft | 547 kts | 19° |
| 2026-05-07 10:00 | -19.17725 | -43.40420 | 31185 ft | 548 kts | 22° |
| 2026-05-07 10:00 | -19.10518 | -43.37717 | 31181 ft | 549 kts | 20° |
| 2026-05-07 10:01 | -19.03254 | -43.35208 | 31182 ft | 549 kts | 20° |
| 2026-05-07 10:01 | -18.96034 | -43.32712 | 31179 ft | 549 kts | 20° |
| 2026-05-07 10:02 | -18.88734 | -43.30186 | 31181 ft | 549 kts | 20° |
| 2026-05-07 10:02 | -18.81509 | -43.27702 | 31180 ft | 549 kts | 20° |
| 2026-05-07 10:03 | -18.74244 | -43.25205 | 31185 ft | 549 kts | 20° |
| 2026-05-07 10:03 | -18.66981 | -43.22714 | 31180 ft | 549 kts | 20° |
| 2026-05-07 10:04 | -18.59706 | -43.20219 | 31181 ft | 549 kts | 20° |
| 2026-05-07 10:04 | -18.52483 | -43.17744 | 31178 ft | 549 kts | 20° |
| 2026-05-07 10:05 | -18.45218 | -43.15257 | 31179 ft | 549 kts | 20° |
| 2026-05-07 10:05 | -18.37963 | -43.12735 | 31177 ft | 549 kts | 21° |
| 2026-05-07 10:06 | -18.30814 | -43.09924 | 31179 ft | 548 kts | 23° |
| 2026-05-07 10:06 | -18.23669 | -43.07096 | 31176 ft | 549 kts | 22° |
| 2026-05-07 10:07 | -18.16504 | -43.04306 | 31178 ft | 549 kts | 22° |
| 2026-05-07 10:07 | -18.09348 | -43.01502 | 31176 ft | 548 kts | 22° |
| 2026-05-07 10:08 | -18.02231 | -42.98713 | 31172 ft | 548 kts | 22° |
| 2026-05-07 10:08 | -17.95078 | -42.95915 | 31170 ft | 548 kts | 22° |
| 2026-05-07 10:09 | -17.87926 | -42.93118 | 31174 ft | 548 kts | 22° |
| 2026-05-07 10:09 | -17.80823 | -42.90344 | 31171 ft | 547 kts | 22° |
| 2026-05-07 10:10 | -17.73674 | -42.87553 | 31168 ft | 548 kts | 22° |
| 2026-05-07 10:10 | -17.66523 | -42.84764 | 31166 ft | 548 kts | 22° |
| 2026-05-07 10:11 | -17.59378 | -42.81981 | 31175 ft | 548 kts | 22° |
| 2026-05-07 10:11 | -17.52240 | -42.79200 | 31166 ft | 547 kts | 22° |
| 2026-05-07 10:12 | -17.45144 | -42.76441 | 31167 ft | 546 kts | 22° |
| 2026-05-07 10:12 | -17.38023 | -42.73671 | 31161 ft | 546 kts | 22° |
| 2026-05-07 10:13 | -17.30898 | -42.70903 | 31164 ft | 546 kts | 22° |
| 2026-05-07 10:13 | -17.23768 | -42.68138 | 31159 ft | 546 kts | 22° |
| 2026-05-07 10:14 | -17.16630 | -42.65370 | 31156 ft | 547 kts | 22° |
| 2026-05-07 10:14 | -17.09504 | -42.62609 | 31158 ft | 547 kts | 22° |
| 2026-05-07 10:15 | -17.02412 | -42.59865 | 31152 ft | 546 kts | 21° |
| 2026-05-07 10:15 | -16.95299 | -42.57115 | 31153 ft | 545 kts | 21° |
| 2026-05-07 10:16 | -16.88166 | -42.54358 | 31150 ft | 545 kts | 21° |
| 2026-05-07 10:16 | -16.81091 | -42.51626 | 31152 ft | 545 kts | 22° |
| 2026-05-07 10:17 | -16.73963 | -42.48875 | 31152 ft | 546 kts | 21° |
| 2026-05-07 10:17 | -16.66845 | -42.46132 | 31152 ft | 545 kts | 22° |
| 2026-05-07 10:18 | -16.59719 | -42.43386 | 31150 ft | 545 kts | 21° |
| 2026-05-07 10:18 | -16.52640 | -42.40664 | 31152 ft | 545 kts | 21° |
| 2026-05-07 10:19 | -16.46722 | -42.38383 | 31154 ft | 543 kts | 21° |
| 2026-05-07 10:19 | -16.39616 | -42.35650 | 31150 ft | 543 kts | 21° |
| 2026-05-07 10:20 | -16.32527 | -42.32931 | 31155 ft | 543 kts | 21° |
| 2026-05-07 10:20 | -16.25427 | -42.30203 | 31152 ft | 543 kts | 21° |
| 2026-05-07 10:21 | -16.18366 | -42.27492 | 31149 ft | 543 kts | 22° |
| 2026-05-07 10:21 | -16.11469 | -42.24291 | 31150 ft | 542 kts | 28° |
| 2026-05-07 10:22 | -16.04697 | -42.20825 | 31154 ft | 543 kts | 27° |
| 2026-05-07 10:22 | -15.97870 | -42.17438 | 31149 ft | 541 kts | 27° |
| 2026-05-07 10:23 | -15.91129 | -42.14040 | 31157 ft | 541 kts | 27° |
| 2026-05-07 10:23 | -15.84355 | -42.10610 | 31158 ft | 541 kts | 27° |
| 2026-05-07 10:24 | -15.77576 | -42.07185 | 31156 ft | 541 kts | 27° |
| 2026-05-07 10:24 | -15.70835 | -42.03778 | 31154 ft | 542 kts | 27° |
| 2026-05-07 10:25 | -15.64046 | -42.00349 | 31156 ft | 542 kts | 27° |
| 2026-05-07 10:25 | -15.57241 | -41.96916 | 31158 ft | 540 kts | 27° |
| 2026-05-07 10:26 | -15.50524 | -41.93544 | 31157 ft | 538 kts | 27° |
| 2026-05-07 10:26 | -15.43779 | -41.90134 | 31158 ft | 538 kts | 27° |
| 2026-05-07 10:27 | -15.37035 | -41.86732 | 31159 ft | 538 kts | 27° |
| 2026-05-07 10:27 | -15.30301 | -41.83346 | 31155 ft | 538 kts | 27° |
| 2026-05-07 10:28 | -15.23596 | -41.79971 | 31155 ft | 539 kts | 27° |
| 2026-05-07 10:28 | -15.16831 | -41.76570 | 31161 ft | 539 kts | 26° |
| 2026-05-07 10:29 | -15.10104 | -41.73193 | 31146 ft | 535 kts | 26° |
| 2026-05-07 10:29 | -15.03414 | -41.69836 | 31143 ft | 534 kts | 26° |
| 2026-05-07 10:30 | -14.93407 | -41.64819 | 31141 ft | 535 kts | 26° |
| 2026-05-07 10:30 | -14.86687 | -41.61453 | 31141 ft | 536 kts | 26° |
| 2026-05-07 10:31 | -14.79964 | -41.58087 | 31125 ft | 536 kts | 26° |
| 2026-05-07 10:31 | -14.73270 | -41.54738 | 31122 ft | 536 kts | 26° |
| 2026-05-07 10:32 | -14.66577 | -41.51392 | 31125 ft | 533 kts | 26° |
| 2026-05-07 10:32 | -14.59898 | -41.48055 | 31125 ft | 533 kts | 26° |
| 2026-05-07 10:33 | -14.53212 | -41.44717 | 31124 ft | 533 kts | 26° |
| 2026-05-07 10:33 | -14.46521 | -41.41380 | 31122 ft | 534 kts | 26° |
| 2026-05-07 10:34 | -14.39864 | -41.38061 | 31117 ft | 534 kts | 26° |
| 2026-05-07 10:34 | -14.33159 | -41.34721 | 31128 ft | 534 kts | 26° |
| 2026-05-07 10:35 | -14.26464 | -41.31386 | 31118 ft | 530 kts | 26° |
| 2026-05-07 10:35 | -14.19854 | -41.28097 | 31116 ft | 529 kts | 26° |
| 2026-05-07 10:36 | -14.13205 | -41.24791 | 31114 ft | 529 kts | 26° |
| 2026-05-07 10:36 | -14.06607 | -41.21513 | 31106 ft | 529 kts | 26° |
| 2026-05-07 10:37 | -13.99964 | -41.18211 | 31116 ft | 530 kts | 26° |
| 2026-05-07 10:37 | -13.93324 | -41.14914 | 31112 ft | 530 kts | 26° |
| 2026-05-07 10:38 | -13.86721 | -41.11639 | 31120 ft | 530 kts | 26° |
| 2026-05-07 10:38 | -13.80072 | -41.08345 | 31119 ft | 530 kts | 26° |
| 2026-05-07 10:39 | -13.73399 | -41.05039 | 31110 ft | 532 kts | 26° |
| 2026-05-07 10:39 | -13.66722 | -41.01734 | 31119 ft | 533 kts | 26° |
| 2026-05-07 10:40 | -13.60042 | -40.98428 | 31120 ft | 533 kts | 26° |
| 2026-05-07 10:40 | -13.53350 | -40.95120 | 31113 ft | 534 kts | 26° |
| 2026-05-07 10:41 | -13.46681 | -40.91826 | 31123 ft | 535 kts | 26° |
| 2026-05-07 10:41 | -13.39988 | -40.88521 | 31109 ft | 531 kts | 26° |
| 2026-05-07 10:42 | -13.33335 | -40.85242 | 31105 ft | 530 kts | 26° |
| 2026-05-07 10:42 | -13.26672 | -40.81954 | 31095 ft | 533 kts | 25° |
| 2026-05-07 10:43 | -13.19976 | -40.78653 | 31103 ft | 534 kts | 25° |
| 2026-05-07 10:43 | -13.13270 | -40.75351 | 31097 ft | 534 kts | 25° |
| 2026-05-07 10:44 | -13.06598 | -40.72067 | 31093 ft | 534 kts | 25° |
| 2026-05-07 10:44 | -12.99882 | -40.68762 | 31101 ft | 536 kts | 25° |
| 2026-05-07 10:45 | -12.93188 | -40.65469 | 31093 ft | 531 kts | 25° |
| 2026-05-07 10:45 | -12.86522 | -40.62196 | 31094 ft | 530 kts | 25° |
| 2026-05-07 10:46 | -12.79860 | -40.58925 | 31096 ft | 532 kts | 25° |
| 2026-05-07 10:46 | -12.73206 | -40.55659 | 31088 ft | 535 kts | 25° |
| 2026-05-07 10:47 | -12.66490 | -40.52370 | 31087 ft | 535 kts | 25° |
| 2026-05-07 10:47 | -12.59768 | -40.49068 | 31090 ft | 535 kts | 25° |
| 2026-05-07 10:48 | -12.53053 | -40.45775 | 31086 ft | 535 kts | 25° |
| 2026-05-07 10:48 | -12.46351 | -40.42494 | 31084 ft | 533 kts | 25° |
| 2026-05-07 10:49 | -12.39655 | -40.39222 | 31087 ft | 533 kts | 25° |
| 2026-05-07 10:49 | -12.33006 | -40.35973 | 31082 ft | 533 kts | 25° |
| 2026-05-07 10:50 | -12.26300 | -40.32692 | 31085 ft | 536 kts | 24° |
| 2026-05-07 10:50 | -12.19587 | -40.29418 | 31080 ft | 537 kts | 24° |
| 2026-05-07 10:51 | -12.12845 | -40.26123 | 31086 ft | 537 kts | 24° |
| 2026-05-07 10:51 | -12.06107 | -40.22836 | 31073 ft | 534 kts | 24° |
| 2026-05-07 10:52 | -11.99394 | -40.19562 | 31081 ft | 535 kts | 24° |
| 2026-05-07 10:52 | -11.92666 | -40.16287 | 31085 ft | 535 kts | 24° |
| 2026-05-07 10:53 | -11.85991 | -40.13037 | 31083 ft | 535 kts | 24° |
| 2026-05-07 10:53 | -11.79248 | -40.09748 | 31081 ft | 535 kts | 24° |
| 2026-05-07 10:54 | -11.72525 | -40.06477 | 31087 ft | 535 kts | 24° |
| 2026-05-07 10:54 | -11.65841 | -40.03225 | 31086 ft | 535 kts | 24° |
| 2026-05-07 10:55 | -11.59126 | -39.99967 | 31081 ft | 532 kts | 23° |
| 2026-05-07 10:55 | -11.52418 | -39.96813 | 31072 ft | 531 kts | 22° |
| 2026-05-07 10:56 | -11.45663 | -39.93654 | 31079 ft | 534 kts | 22° |
| 2026-05-07 10:56 | -11.38955 | -39.90467 | 31079 ft | 534 kts | 23° |
| 2026-05-07 10:57 | -11.32210 | -39.87254 | 31077 ft | 534 kts | 23° |
| 2026-05-07 10:57 | -11.25500 | -39.84065 | 31089 ft | 535 kts | 22° |
| 2026-05-07 10:58 | -11.18732 | -39.80850 | 31073 ft | 537 kts | 22° |
| 2026-05-07 10:58 | -11.11980 | -39.77643 | 31075 ft | 534 kts | 22° |
| 2026-05-07 10:59 | -11.05251 | -39.74445 | 31074 ft | 533 kts | 22° |
| 2026-05-07 10:59 | -10.98569 | -39.71274 | 31076 ft | 534 kts | 22° |
| 2026-05-07 11:00 | -10.91815 | -39.68069 | 31063 ft | 535 kts | 22° |
| 2026-05-07 11:00 | -10.85052 | -39.64863 | 31076 ft | 536 kts | 22° |
| 2026-05-07 11:01 | -10.78296 | -39.61659 | 31069 ft | 536 kts | 22° |
| 2026-05-07 11:01 | -10.71532 | -39.58452 | 31060 ft | 536 kts | 22° |
| 2026-05-07 11:02 | -10.64770 | -39.55248 | 31079 ft | 535 kts | 21° |
| 2026-05-07 11:02 | -10.58055 | -39.52072 | 31076 ft | 535 kts | 21° |
| 2026-05-07 11:03 | -10.51307 | -39.48881 | 31073 ft | 535 kts | 21° |
| 2026-05-07 11:03 | -10.44553 | -39.45684 | 31065 ft | 535 kts | 21° |
| 2026-05-07 11:04 | -10.37800 | -39.42493 | 31070 ft | 535 kts | 21° |
| 2026-05-07 11:04 | -10.31045 | -39.39304 | 31071 ft | 535 kts | 21° |
| 2026-05-07 11:05 | -10.24282 | -39.36116 | 31067 ft | 535 kts | 21° |
| 2026-05-07 11:05 | -10.17563 | -39.32938 | 31065 ft | 534 kts | 21° |
| 2026-05-07 11:06 | -10.10776 | -39.29736 | 31066 ft | 534 kts | 21° |
| 2026-05-07 11:06 | -10.04084 | -39.26576 | 31062 ft | 534 kts | 21° |
| 2026-05-07 11:07 | -9.97339 | -39.23395 | 31064 ft | 534 kts | 21° |
| 2026-05-07 11:07 | -9.90604 | -39.20224 | 31054 ft | 533 kts | 21° |
| 2026-05-07 11:08 | -9.85004 | -39.17593 | 31054 ft | 532 kts | 21° |
| 2026-05-07 11:08 | -9.77188 | -39.13917 | 31056 ft | 532 kts | 21° |
| 2026-05-07 11:09 | -9.71548 | -39.11266 | 31063 ft | 532 kts | 21° |
| 2026-05-07 11:09 | -9.64888 | -39.08122 | 31054 ft | 531 kts | 21° |
| 2026-05-07 11:10 | -9.58193 | -39.04973 | 31053 ft | 529 kts | 21° |
| 2026-05-07 11:10 | -9.51507 | -39.01831 | 31054 ft | 529 kts | 21° |
| 2026-05-07 11:11 | -9.44821 | -38.98690 | 31053 ft | 529 kts | 21° |
| 2026-05-07 11:11 | -9.38154 | -38.95559 | 31044 ft | 528 kts | 21° |
| 2026-05-07 11:12 | -9.31543 | -38.92455 | 31050 ft | 526 kts | 21° |
| 2026-05-07 11:12 | -9.24908 | -38.89344 | 31045 ft | 525 kts | 21° |
| 2026-05-07 11:13 | -9.18272 | -38.86233 | 31054 ft | 525 kts | 21° |
| 2026-05-07 11:13 | -9.11636 | -38.83122 | 31036 ft | 525 kts | 21° |
| 2026-05-07 11:14 | -9.04999 | -38.80012 | 31050 ft | 525 kts | 21° |
| 2026-05-07 11:14 | -8.98364 | -38.76905 | 31049 ft | 525 kts | 21° |
| 2026-05-07 11:15 | -8.91718 | -38.73793 | 31036 ft | 525 kts | 21° |
| 2026-05-07 11:15 | -8.85111 | -38.70702 | 31039 ft | 525 kts | 21° |
| 2026-05-07 11:16 | -8.78486 | -38.67602 | 31041 ft | 523 kts | 21° |
| 2026-05-07 11:16 | -8.71874 | -38.64509 | 31037 ft | 522 kts | 21° |
| 2026-05-07 11:17 | -8.65279 | -38.61429 | 31042 ft | 522 kts | 21° |
| 2026-05-07 11:17 | -8.58679 | -38.58346 | 31031 ft | 522 kts | 21° |
| 2026-05-07 11:18 | -8.52139 | -38.55293 | 31036 ft | 521 kts | 21° |
| 2026-05-07 11:18 | -8.45549 | -38.52215 | 31041 ft | 520 kts | 21° |
| 2026-05-07 11:19 | -8.38968 | -38.49142 | 31044 ft | 520 kts | 21° |
| 2026-05-07 11:19 | -8.32430 | -38.46093 | 31038 ft | 520 kts | 21° |
| 2026-05-07 11:20 | -8.25849 | -38.43025 | 31037 ft | 520 kts | 21° |
| 2026-05-07 11:20 | -8.19272 | -38.39956 | 31044 ft | 520 kts | 21° |
| 2026-05-07 11:21 | -8.12701 | -38.36894 | 31045 ft | 519 kts | 21° |
| 2026-05-07 11:21 | -8.06132 | -38.33832 | 31047 ft | 519 kts | 21° |
| 2026-05-07 11:22 | -7.99615 | -38.30796 | 31043 ft | 519 kts | 21° |
| 2026-05-07 11:22 | -7.93052 | -38.27739 | 31044 ft | 519 kts | 21° |
| 2026-05-07 11:23 | -7.86490 | -38.24686 | 31043 ft | 519 kts | 21° |
| 2026-05-07 11:23 | -7.79936 | -38.21638 | 31045 ft | 519 kts | 21° |
| 2026-05-07 11:24 | -7.73362 | -38.18612 | 31037 ft | 518 kts | 21° |
| 2026-05-07 11:24 | -7.66774 | -38.15630 | 31040 ft | 518 kts | 21° |
| 2026-05-07 11:25 | -7.60248 | -38.12655 | 31035 ft | 518 kts | 21° |
| 2026-05-07 11:25 | -7.53676 | -38.09643 | 31040 ft | 518 kts | 21° |
| 2026-05-07 11:26 | -7.47119 | -38.06638 | 31027 ft | 518 kts | 21° |
| 2026-05-07 11:26 | -7.40548 | -38.03633 | 31027 ft | 518 kts | 21° |
| 2026-05-07 11:27 | -7.33979 | -38.00625 | 31027 ft | 518 kts | 21° |
| 2026-05-07 11:27 | -7.27417 | -37.97618 | 31023 ft | 518 kts | 21° |
| 2026-05-07 11:28 | -7.20848 | -37.94610 | 31022 ft | 518 kts | 21° |
| 2026-05-07 11:28 | -7.14321 | -37.91627 | 31015 ft | 517 kts | 22° |
| 2026-05-07 11:29 | -7.07766 | -37.88628 | 31019 ft | 517 kts | 22° |
| 2026-05-07 11:29 | -7.01220 | -37.85636 | 31018 ft | 517 kts | 22° |
| 2026-05-07 11:30 | -6.94667 | -37.82643 | 31016 ft | 517 kts | 22° |
| 2026-05-07 11:30 | -6.88121 | -37.79653 | 31012 ft | 516 kts | 22° |
| 2026-05-07 11:31 | -6.81611 | -37.76684 | 31013 ft | 516 kts | 22° |
| 2026-05-07 11:31 | -6.75050 | -37.73697 | 31014 ft | 516 kts | 22° |
| 2026-05-07 11:32 | -6.65233 | -37.69205 | 31013 ft | 516 kts | 22° |
| 2026-05-07 11:33 | -6.58721 | -37.66236 | 31013 ft | 516 kts | 22° |
| 2026-05-07 11:33 | -6.52186 | -37.63254 | 31015 ft | 515 kts | 22° |
| 2026-05-07 11:34 | -6.45646 | -37.60272 | 31010 ft | 515 kts | 22° |
| 2026-05-07 11:34 | -6.39114 | -37.57294 | 31006 ft | 515 kts | 22° |
| 2026-05-07 11:35 | -6.32573 | -37.54315 | 31007 ft | 515 kts | 22° |
| 2026-05-07 11:35 | -6.26075 | -37.51354 | 31004 ft | 515 kts | 22° |
| 2026-05-07 11:36 | -6.19533 | -37.48374 | 31001 ft | 516 kts | 22° |
| 2026-05-07 11:36 | -6.12978 | -37.45389 | 31003 ft | 515 kts | 22° |
| 2026-05-07 11:37 | -6.06447 | -37.42417 | 31005 ft | 515 kts | 22° |
| 2026-05-07 11:37 | -5.99956 | -37.39464 | 31000 ft | 515 kts | 22° |
| 2026-05-07 11:38 | -5.93427 | -37.36493 | 31000 ft | 514 kts | 22° |
| 2026-05-07 11:38 | -5.86891 | -37.33520 | 30994 ft | 514 kts | 22° |
| 2026-05-07 11:39 | -5.80406 | -37.30572 | 30996 ft | 514 kts | 22° |
| 2026-05-07 11:39 | -5.73885 | -37.27608 | 30992 ft | 514 kts | 22° |
| 2026-05-07 11:40 | -5.67366 | -37.24645 | 30988 ft | 514 kts | 22° |
| 2026-05-07 11:40 | -5.60834 | -37.21676 | 30989 ft | 514 kts | 22° |
| 2026-05-07 11:41 | -5.54313 | -37.18713 | 30988 ft | 514 kts | 22° |
| 2026-05-07 11:41 | -5.47830 | -37.15769 | 30987 ft | 513 kts | 22° |
| 2026-05-07 11:42 | -5.41313 | -37.12812 | 30985 ft | 513 kts | 23° |
| 2026-05-07 11:42 | -5.34796 | -37.09853 | 30986 ft | 513 kts | 23° |
| 2026-05-07 11:43 | -5.28280 | -37.06895 | 30983 ft | 513 kts | 23° |
| 2026-05-07 11:43 | -5.21763 | -37.03939 | 30984 ft | 513 kts | 23° |
| 2026-05-07 11:44 | -5.15296 | -37.01007 | 30979 ft | 513 kts | 23° |
| 2026-05-07 11:44 | -5.08774 | -36.98050 | 30980 ft | 513 kts | 23° |
| 2026-05-07 11:45 | -5.02264 | -36.95097 | 30981 ft | 513 kts | 23° |
| 2026-05-07 11:45 | -4.95805 | -36.92168 | 30982 ft | 512 kts | 23° |
| 2026-05-07 11:46 | -4.89296 | -36.89217 | 30977 ft | 513 kts | 23° |
| 2026-05-07 11:46 | -4.82788 | -36.86272 | 30977 ft | 513 kts | 23° |
| 2026-05-07 11:47 | -4.76281 | -36.83323 | 30977 ft | 513 kts | 23° |
| 2026-05-07 11:47 | -4.69818 | -36.80393 | 30979 ft | 513 kts | 23° |
| 2026-05-07 11:48 | -4.63311 | -36.77442 | 30976 ft | 513 kts | 23° |
| 2026-05-07 11:48 | -4.56796 | -36.74488 | 30976 ft | 513 kts | 23° |
| 2026-05-07 11:49 | -4.50322 | -36.71540 | 30982 ft | 514 kts | 23° |
| 2026-05-07 11:49 | -4.43810 | -36.68575 | 30979 ft | 514 kts | 23° |
| 2026-05-07 11:50 | -4.37325 | -36.65623 | 30973 ft | 514 kts | 23° |
| 2026-05-07 11:50 | -4.30803 | -36.62656 | 30974 ft | 514 kts | 23° |
| 2026-05-07 11:51 | -4.24290 | -36.59688 | 30974 ft | 514 kts | 23° |
| 2026-05-07 11:51 | -4.17777 | -36.56722 | 30972 ft | 514 kts | 23° |
| 2026-05-07 11:52 | -4.11264 | -36.53762 | 30973 ft | 514 kts | 22° |
| 2026-05-07 11:52 | -4.04737 | -36.50791 | 30975 ft | 514 kts | 23° |
| 2026-05-07 11:53 | -3.98262 | -36.47843 | 30972 ft | 514 kts | 23° |
| 2026-05-07 11:53 | -3.91744 | -36.44880 | 30975 ft | 514 kts | 23° |
| 2026-05-07 11:54 | -3.85218 | -36.41912 | 30976 ft | 514 kts | 23° |
| 2026-05-07 11:54 | -3.78753 | -36.38973 | 30974 ft | 514 kts | 23° |
| 2026-05-07 11:55 | -3.72233 | -36.36007 | 30976 ft | 514 kts | 23° |
| 2026-05-07 11:55 | -3.65715 | -36.33045 | 30971 ft | 513 kts | 23° |
| 2026-05-07 11:56 | -3.60312 | -36.30591 | 30972 ft | 512 kts | 24° |
| 2026-05-07 11:56 | -3.52758 | -36.27156 | 30970 ft | 512 kts | 23° |
| 2026-05-07 11:57 | -3.47355 | -36.24700 | 30970 ft | 512 kts | 24° |
| 2026-05-07 11:57 | -3.40866 | -36.21753 | 30975 ft | 511 kts | 23° |
| 2026-05-07 11:58 | -3.34404 | -36.18818 | 30973 ft | 511 kts | 23° |
| 2026-05-07 11:58 | -3.27918 | -36.15873 | 30976 ft | 511 kts | 23° |
| 2026-05-07 11:59 | -3.21435 | -36.12928 | 30976 ft | 511 kts | 24° |
| 2026-05-07 11:59 | -3.14942 | -36.09982 | 30973 ft | 511 kts | 23° |
| 2026-05-07 12:00 | -3.08506 | -36.07061 | 30971 ft | 511 kts | 24° |
| 2026-05-07 12:00 | -3.02006 | -36.04110 | 30974 ft | 513 kts | 24° |
| 2026-05-07 12:01 | -2.95498 | -36.01156 | 30972 ft | 513 kts | 24° |
| 2026-05-07 12:01 | -2.89031 | -35.98221 | 30972 ft | 513 kts | 24° |
| 2026-05-07 12:02 | -2.82531 | -35.95271 | 30970 ft | 513 kts | 24° |
| 2026-05-07 12:02 | -2.76025 | -35.92318 | 30973 ft | 512 kts | 24° |
| 2026-05-07 12:03 | -2.69521 | -35.89367 | 30973 ft | 512 kts | 24° |
| 2026-05-07 12:03 | -2.63035 | -35.86425 | 30971 ft | 512 kts | 24° |
| 2026-05-07 12:04 | -2.56589 | -35.83503 | 30977 ft | 512 kts | 24° |
| 2026-05-07 12:04 | -2.50097 | -35.80557 | 30975 ft | 512 kts | 24° |
| 2026-05-07 12:05 | -2.43612 | -35.77626 | 30973 ft | 511 kts | 24° |
| 2026-05-07 12:05 | -2.37140 | -35.74686 | 30977 ft | 510 kts | 24° |
| 2026-05-07 12:06 | -2.30683 | -35.71758 | 30977 ft | 508 kts | 24° |
| 2026-05-07 12:06 | -2.24277 | -35.68858 | 30974 ft | 508 kts | 24° |
| 2026-05-07 12:07 | -2.17831 | -35.65938 | 30976 ft | 508 kts | 24° |
| 2026-05-07 12:07 | -2.11395 | -35.63018 | 30971 ft | 508 kts | 24° |
| 2026-05-07 12:08 | -2.04961 | -35.60097 | 30977 ft | 508 kts | 24° |
| 2026-05-07 12:08 | -1.98510 | -35.57177 | 30977 ft | 508 kts | 24° |
| 2026-05-07 12:09 | -1.92111 | -35.54279 | 30977 ft | 508 kts | 24° |
| 2026-05-07 12:09 | -1.85670 | -35.51364 | 30982 ft | 508 kts | 24° |
| 2026-05-07 12:10 | -1.79230 | -35.48442 | 30975 ft | 508 kts | 24° |
| 2026-05-07 12:10 | -1.72863 | -35.45390 | 30978 ft | 508 kts | 28° |
| 2026-05-07 12:11 | -1.66682 | -35.41957 | 30971 ft | 508 kts | 29° |
| 2026-05-07 12:11 | -1.60513 | -35.38599 | 30974 ft | 508 kts | 28° |
| 2026-05-07 12:12 | -1.54299 | -35.35224 | 30970 ft | 508 kts | 29° |
| 2026-05-07 12:12 | -1.48143 | -35.31830 | 30975 ft | 507 kts | 29° |
| 2026-05-07 12:13 | -1.41963 | -35.28421 | 30978 ft | 507 kts | 29° |
| 2026-05-07 12:13 | -1.35768 | -35.25022 | 30979 ft | 507 kts | 29° |
| 2026-05-07 12:14 | -1.29575 | -35.21625 | 30974 ft | 505 kts | 29° |
| 2026-05-07 12:14 | -1.23462 | -35.18260 | 30980 ft | 505 kts | 29° |
| 2026-05-07 12:15 | -1.17299 | -35.14877 | 30979 ft | 504 kts | 29° |
| 2026-05-07 12:15 | -1.11155 | -35.11503 | 30977 ft | 504 kts | 30° |
| 2026-05-07 12:16 | -1.05018 | -35.08120 | 30977 ft | 504 kts | 30° |
| 2026-05-07 12:16 | -0.98902 | -35.04761 | 30979 ft | 504 kts | 30° |
| 2026-05-07 12:17 | -0.92722 | -35.01375 | 30978 ft | 504 kts | 29° |
| 2026-05-07 12:17 | -0.86614 | -34.98015 | 30979 ft | 505 kts | 29° |
| 2026-05-07 12:18 | -0.80438 | -34.94614 | 30976 ft | 505 kts | 29° |
| 2026-05-07 12:18 | -0.74261 | -34.91219 | 30975 ft | 506 kts | 29° |
| 2026-05-07 12:19 | -0.68129 | -34.87856 | 30978 ft | 506 kts | 29° |
| 2026-05-07 12:19 | -0.61968 | -34.84464 | 30980 ft | 505 kts | 29° |
| 2026-05-07 12:20 | -0.55792 | -34.81079 | 30980 ft | 506 kts | 29° |
| 2026-05-07 12:20 | -0.52712 | -34.79386 | 31100 ft | 505 kts | 30° |
| 2026-05-07 12:20 | -0.49626 | -34.77686 | 31223 ft | 505 kts | 30° |
| 2026-05-07 12:20 | -0.46548 | -34.75990 | 31329 ft | 505 kts | 30° |
| 2026-05-07 12:21 | -0.43503 | -34.74317 | 31454 ft | 505 kts | 30° |
| 2026-05-07 12:21 | -0.40426 | -34.72626 | 31567 ft | 504 kts | 29° |
| 2026-05-07 12:21 | -0.37352 | -34.70937 | 31690 ft | 504 kts | 29° |
| 2026-05-07 12:21 | -0.34279 | -34.69248 | 31812 ft | 503 kts | 30° |
| 2026-05-07 12:22 | -0.31211 | -34.67562 | 31928 ft | 503 kts | 30° |
| 2026-05-07 12:22 | -0.28145 | -34.65876 | 32054 ft | 503 kts | 30° |
| 2026-05-07 12:22 | -0.25082 | -34.64190 | 32169 ft | 502 kts | 30° |
| 2026-05-07 12:22 | -0.22021 | -34.62506 | 32291 ft | 502 kts | 30° |
| 2026-05-07 12:23 | -0.18955 | -34.60819 | 32420 ft | 502 kts | 30° |
| 2026-05-07 12:23 | -0.15896 | -34.59139 | 32540 ft | 502 kts | 30° |
| 2026-05-07 12:23 | -0.12866 | -34.57476 | 32651 ft | 501 kts | 30° |
| 2026-05-07 12:23 | -0.09811 | -34.55799 | 32797 ft | 501 kts | 30° |
| 2026-05-07 12:24 | -0.06754 | -34.54116 | 32920 ft | 501 kts | 30° |
| 2026-05-07 12:24 | -0.00650 | -34.50755 | 32974 ft | 500 kts | 30° |
| 2026-05-07 12:25 | 0.05417 | -34.47418 | 32972 ft | 501 kts | 30° |
| 2026-05-07 12:25 | 0.11529 | -34.44069 | 32976 ft | 501 kts | 30° |
| 2026-05-07 12:26 | 0.17644 | -34.40714 | 32978 ft | 501 kts | 30° |
| 2026-05-07 12:26 | 0.23777 | -34.37341 | 32977 ft | 501 kts | 30° |
| 2026-05-07 12:27 | 0.29889 | -34.33975 | 32975 ft | 501 kts | 30° |
| 2026-05-07 12:27 | 0.35973 | -34.30634 | 32977 ft | 502 kts | 30° |
| 2026-05-07 12:28 | 0.42110 | -34.27277 | 32977 ft | 503 kts | 30° |
| 2026-05-07 12:28 | 0.48245 | -34.23891 | 32976 ft | 503 kts | 30° |
| 2026-05-07 12:29 | 0.54388 | -34.20515 | 32974 ft | 503 kts | 29° |
| 2026-05-07 12:29 | 0.60529 | -34.17147 | 32976 ft | 504 kts | 29° |
| 2026-05-07 12:30 | 0.66635 | -34.13785 | 32979 ft | 504 kts | 30° |
| 2026-05-07 12:30 | 0.72786 | -34.10403 | 32979 ft | 505 kts | 30° |
| 2026-05-07 12:31 | 0.78950 | -34.07020 | 32977 ft | 505 kts | 30° |
| 2026-05-07 12:31 | 0.85112 | -34.03632 | 32975 ft | 505 kts | 30° |
| 2026-05-07 12:32 | 0.90914 | -33.99782 | 32984 ft | 503 kts | 38° |
| 2026-05-07 12:32 | 0.96639 | -33.95731 | 32978 ft | 504 kts | 32° |
| 2026-05-07 12:33 | 1.05809 | -33.90527 | 32976 ft | 505 kts | 30° |
| 2026-05-07 12:33 | 1.11952 | -33.87108 | 32975 ft | 505 kts | 30° |
| 2026-05-07 12:34 | 1.18097 | -33.83754 | 32975 ft | 505 kts | 29° |
| 2026-05-07 12:34 | 1.24262 | -33.80373 | 32976 ft | 505 kts | 30° |
| 2026-05-07 12:35 | 1.30425 | -33.76970 | 32978 ft | 506 kts | 29° |
| 2026-05-07 12:35 | 1.36606 | -33.73585 | 32976 ft | 506 kts | 29° |
| 2026-05-07 12:36 | 1.42755 | -33.70218 | 32975 ft | 506 kts | 29° |
| 2026-05-07 12:36 | 1.48938 | -33.66831 | 32973 ft | 506 kts | 29° |
| 2026-05-07 12:37 | 1.55125 | -33.63443 | 32974 ft | 506 kts | 29° |
| 2026-05-07 12:37 | 1.61273 | -33.60077 | 32973 ft | 507 kts | 29° |
| 2026-05-07 12:38 | 1.67468 | -33.56684 | 32973 ft | 507 kts | 29° |
| 2026-05-07 12:38 | 1.73681 | -33.53300 | 32973 ft | 507 kts | 28° |
| 2026-05-07 12:39 | 1.80116 | -33.50469 | 32978 ft | 508 kts | 21° |
| 2026-05-07 12:39 | 1.86645 | -33.47756 | 32973 ft | 507 kts | 27° |
| 2026-05-07 12:40 | 1.92892 | -33.44473 | 32971 ft | 507 kts | 29° |
| 2026-05-07 12:40 | 1.99108 | -33.41106 | 32973 ft | 508 kts | 29° |
| 2026-05-07 12:41 | 2.05325 | -33.37728 | 32974 ft | 508 kts | 29° |
| 2026-05-07 12:41 | 2.11490 | -33.34345 | 32974 ft | 508 kts | 29° |
| 2026-05-07 12:42 | 2.17694 | -33.30935 | 32970 ft | 508 kts | 29° |
| 2026-05-07 12:42 | 2.23855 | -33.27546 | 32970 ft | 508 kts | 29° |
| 2026-05-07 12:43 | 2.30059 | -33.24133 | 32972 ft | 508 kts | 29° |
| 2026-05-07 12:43 | 2.36258 | -33.20721 | 32973 ft | 508 kts | 29° |
| 2026-05-07 12:44 | 2.42421 | -33.17328 | 32973 ft | 508 kts | 29° |
| 2026-05-07 12:44 | 2.48621 | -33.13915 | 32974 ft | 508 kts | 29° |
| 2026-05-07 12:45 | 2.54811 | -33.10508 | 32974 ft | 508 kts | 29° |
| 2026-05-07 12:45 | 2.61006 | -33.07096 | 32976 ft | 508 kts | 29° |
| 2026-05-07 12:46 | 2.67210 | -33.03680 | 32970 ft | 508 kts | 29° |
| 2026-05-07 12:46 | 2.73374 | -33.00286 | 32969 ft | 508 kts | 29° |
| 2026-05-07 12:47 | 2.78521 | -32.97450 | 32972 ft | 508 kts | 29° |
| 2026-05-07 12:47 | 2.84719 | -32.94037 | 32972 ft | 508 kts | 29° |
| 2026-05-07 12:48 | 2.90919 | -32.90621 | 32970 ft | 508 kts | 29° |
| 2026-05-07 12:48 | 2.97083 | -32.87223 | 32969 ft | 508 kts | 29° |
| 2026-05-07 12:49 | 3.03281 | -32.83808 | 32970 ft | 508 kts | 29° |
| 2026-05-07 12:49 | 3.09471 | -32.80395 | 32970 ft | 508 kts | 29° |
| 2026-05-07 12:50 | 3.15641 | -32.76994 | 32971 ft | 508 kts | 29° |
| 2026-05-07 12:50 | 3.21838 | -32.73579 | 32972 ft | 508 kts | 29° |
| 2026-05-07 12:51 | 3.28043 | -32.70158 | 32970 ft | 508 kts | 29° |
| 2026-05-07 12:51 | 3.34234 | -32.66745 | 32971 ft | 508 kts | 29° |
| 2026-05-07 12:52 | 3.40398 | -32.63345 | 32971 ft | 508 kts | 29° |
| 2026-05-07 12:52 | 3.46597 | -32.59925 | 32971 ft | 508 kts | 29° |
| 2026-05-07 12:53 | 3.52790 | -32.56510 | 32972 ft | 508 kts | 29° |
| 2026-05-07 12:53 | 3.58992 | -32.53092 | 32970 ft | 509 kts | 29° |
| 2026-05-07 12:54 | 3.65166 | -32.49691 | 32967 ft | 509 kts | 29° |
| 2026-05-07 12:54 | 3.71368 | -32.46274 | 32967 ft | 509 kts | 29° |
| 2026-05-07 12:55 | 3.77582 | -32.42847 | 32967 ft | 509 kts | 29° |
| 2026-05-07 12:55 | 3.83762 | -32.39441 | 32967 ft | 509 kts | 29° |
| 2026-05-07 12:56 | 3.89972 | -32.36017 | 32969 ft | 509 kts | 29° |
| 2026-05-07 12:56 | 3.96181 | -32.32593 | 32967 ft | 509 kts | 28° |
| 2026-05-07 12:57 | 4.02404 | -32.29162 | 32967 ft | 509 kts | 28° |
| 2026-05-07 12:57 | 4.08577 | -32.25756 | 32967 ft | 509 kts | 29° |
| 2026-05-07 12:58 | 4.14778 | -32.22335 | 32967 ft | 509 kts | 28° |
| 2026-05-07 12:58 | 4.20994 | -32.18906 | 32968 ft | 509 kts | 29° |
| 2026-05-07 12:59 | 4.27204 | -32.15478 | 32968 ft | 510 kts | 28° |
| 2026-05-07 12:59 | 4.33426 | -32.12048 | 32968 ft | 510 kts | 29° |
| 2026-05-07 13:00 | 4.39605 | -32.08632 | 32970 ft | 510 kts | 29° |
| 2026-05-07 13:00 | 4.45828 | -32.05197 | 32969 ft | 510 kts | 28° |
| 2026-05-07 13:01 | 4.52057 | -32.01760 | 32968 ft | 510 kts | 28° |
| 2026-05-07 13:01 | 4.58268 | -31.98324 | 32967 ft | 510 kts | 28° |
| 2026-05-07 13:02 | 4.64487 | -31.94887 | 32967 ft | 510 kts | 28° |
| 2026-05-07 13:02 | 4.70679 | -31.91465 | 32967 ft | 510 kts | 28° |
| 2026-05-07 13:03 | 4.76900 | -31.88027 | 32966 ft | 510 kts | 28° |
| 2026-05-07 13:03 | 4.83127 | -31.84584 | 32965 ft | 510 kts | 28° |
| 2026-05-07 13:04 | 4.89348 | -31.81143 | 32968 ft | 511 kts | 28° |
| 2026-05-07 13:04 | 4.95553 | -31.77711 | 32967 ft | 511 kts | 28° |
| 2026-05-07 13:05 | 5.01785 | -31.74262 | 32965 ft | 511 kts | 28° |
| 2026-05-07 13:05 | 5.08014 | -31.70813 | 32967 ft | 511 kts | 28° |
| 2026-05-07 13:06 | 5.14240 | -31.67361 | 32965 ft | 511 kts | 28° |
| 2026-05-07 13:06 | 5.20461 | -31.63914 | 32966 ft | 511 kts | 28° |
| 2026-05-07 13:07 | 5.26642 | -31.60453 | 32966 ft | 511 kts | 29° |
| 2026-05-07 13:07 | 5.32853 | -31.56960 | 32965 ft | 511 kts | 29° |
| 2026-05-07 13:08 | 5.39064 | -31.53464 | 32966 ft | 511 kts | 29° |
| 2026-05-07 13:08 | 5.45267 | -31.49981 | 32967 ft | 510 kts | 28° |
| 2026-05-07 13:09 | 5.51420 | -31.46514 | 32964 ft | 510 kts | 28° |
| 2026-05-07 13:09 | 5.57609 | -31.43039 | 32965 ft | 510 kts | 28° |
| 2026-05-07 13:10 | 5.63807 | -31.39567 | 32965 ft | 510 kts | 28° |
| 2026-05-07 13:10 | 5.69990 | -31.36081 | 32965 ft | 510 kts | 28° |
| 2026-05-07 13:11 | 5.76138 | -31.32614 | 32969 ft | 510 kts | 28° |
| 2026-05-07 13:11 | 5.82327 | -31.29138 | 32969 ft | 509 kts | 28° |
| 2026-05-07 13:12 | 5.88529 | -31.25654 | 32968 ft | 509 kts | 28° |
| 2026-05-07 13:12 | 5.94710 | -31.22171 | 32968 ft | 509 kts | 28° |
| 2026-05-07 13:13 | 6.00895 | -31.18680 | 32965 ft | 509 kts | 28° |
| 2026-05-07 13:13 | 6.07034 | -31.15219 | 32964 ft | 509 kts | 28° |
| 2026-05-07 13:14 | 6.13219 | -31.11726 | 32968 ft | 509 kts | 28° |
| 2026-05-07 13:14 | 6.19402 | -31.08246 | 32967 ft | 509 kts | 28° |
| 2026-05-07 13:15 | 6.25594 | -31.04763 | 32969 ft | 509 kts | 28° |
| 2026-05-07 13:15 | 6.31782 | -31.01275 | 32969 ft | 509 kts | 28° |
| 2026-05-07 13:16 | 6.37926 | -30.97804 | 32968 ft | 509 kts | 29° |
| 2026-05-07 13:16 | 6.44107 | -30.94306 | 32968 ft | 509 kts | 28° |
| 2026-05-07 13:17 | 6.50287 | -30.90819 | 32968 ft | 509 kts | 28° |
| 2026-05-07 13:17 | 6.56468 | -30.87334 | 32968 ft | 509 kts | 29° |
| 2026-05-07 13:18 | 6.62592 | -30.83850 | 32968 ft | 509 kts | 28° |
| 2026-05-07 13:18 | 6.68790 | -30.80364 | 32969 ft | 509 kts | 28° |
| 2026-05-07 13:19 | 6.74971 | -30.76878 | 32970 ft | 509 kts | 28° |
| 2026-05-07 13:19 | 6.81163 | -30.73377 | 32968 ft | 509 kts | 28° |
| 2026-05-07 13:20 | 6.87307 | -30.69903 | 32971 ft | 509 kts | 28° |
| 2026-05-07 13:20 | 6.93490 | -30.66405 | 32969 ft | 510 kts | 29° |
| 2026-05-07 13:21 | 6.99684 | -30.62901 | 32966 ft | 510 kts | 29° |
| 2026-05-07 13:21 | 7.05885 | -30.59391 | 32967 ft | 510 kts | 29° |
| 2026-05-07 13:22 | 7.12033 | -30.55911 | 32967 ft | 510 kts | 29° |
| 2026-05-07 13:22 | 7.18223 | -30.52405 | 32968 ft | 510 kts | 29° |
| 2026-05-07 13:23 | 7.24420 | -30.48895 | 32969 ft | 510 kts | 28° |
| 2026-05-07 13:23 | 7.30614 | -30.45385 | 32968 ft | 511 kts | 28° |
| 2026-05-07 13:24 | 7.36815 | -30.41871 | 32967 ft | 511 kts | 28° |
| 2026-05-07 13:24 | 7.39895 | -30.40124 | 33370 ft | 503 kts | 28° |
| 2026-05-07 13:24 | 7.42893 | -30.38425 | 33974 ft | 503 kts | 29° |
| 2026-05-07 13:25 | 7.49051 | -30.34933 | 33979 ft | 508 kts | 29° |
| 2026-05-07 13:25 | 7.55229 | -30.31427 | 33978 ft | 508 kts | 28° |
| 2026-05-07 13:26 | 7.61358 | -30.27948 | 33967 ft | 508 kts | 28° |
| 2026-05-07 13:26 | 7.67520 | -30.24449 | 33970 ft | 508 kts | 28° |
| 2026-05-07 13:27 | 7.73693 | -30.20941 | 33970 ft | 508 kts | 28° |
| 2026-05-07 13:27 | 7.79853 | -30.17443 | 33972 ft | 508 kts | 28° |
| 2026-05-07 13:28 | 7.86020 | -30.13939 | 33972 ft | 508 kts | 28° |
| 2026-05-07 13:28 | 7.92154 | -30.10453 | 33972 ft | 509 kts | 28° |
| 2026-05-07 13:29 | 7.98334 | -30.06939 | 33974 ft | 509 kts | 28° |
| 2026-05-07 13:29 | 8.04523 | -30.03417 | 33973 ft | 510 kts | 28° |
| 2026-05-07 13:30 | 8.10671 | -29.99917 | 33972 ft | 510 kts | 28° |
| 2026-05-07 13:30 | 8.16861 | -29.96394 | 33976 ft | 510 kts | 28° |
| 2026-05-07 13:31 | 8.23044 | -29.92873 | 33981 ft | 510 kts | 28° |
| 2026-05-07 13:31 | 8.29184 | -29.89373 | 33979 ft | 510 kts | 28° |
| 2026-05-07 13:32 | 8.35376 | -29.85846 | 33978 ft | 510 kts | 28° |
| 2026-05-07 13:32 | 8.41576 | -29.82316 | 33964 ft | 510 kts | 28° |
| 2026-05-07 13:33 | 8.47731 | -29.78798 | 33964 ft | 511 kts | 28° |
| 2026-05-07 13:33 | 8.53912 | -29.75260 | 33966 ft | 511 kts | 28° |
| 2026-05-07 13:34 | 8.63188 | -29.69933 | 33982 ft | 511 kts | 28° |
| 2026-05-07 13:35 | 8.69388 | -29.66394 | 33966 ft | 511 kts | 28° |
| 2026-05-07 13:35 | 8.75540 | -29.62877 | 33973 ft | 511 kts | 28° |
| 2026-05-07 13:36 | 8.81733 | -29.59334 | 33972 ft | 511 kts | 28° |
| 2026-05-07 13:36 | 8.87937 | -29.55795 | 33972 ft | 511 kts | 28° |
| 2026-05-07 13:37 | 8.94139 | -29.52247 | 33974 ft | 512 kts | 28° |
| 2026-05-07 13:37 | 8.99300 | -29.49290 | 33977 ft | 513 kts | 28° |
| 2026-05-07 13:38 | 9.06528 | -29.45153 | 33974 ft | 513 kts | 28° |
| 2026-05-07 13:38 | 9.11736 | -29.42171 | 33979 ft | 513 kts | 28° |
| 2026-05-07 13:39 | 9.17907 | -29.38635 | 33975 ft | 513 kts | 28° |
| 2026-05-07 13:39 | 9.24119 | -29.35075 | 33974 ft | 513 kts | 28° |
| 2026-05-07 13:40 | 9.30349 | -29.31504 | 33979 ft | 515 kts | 27° |
| 2026-05-07 13:40 | 9.36599 | -29.27921 | 33976 ft | 516 kts | 28° |
| 2026-05-07 13:41 | 9.42853 | -29.24332 | 33976 ft | 516 kts | 27° |
| 2026-05-07 13:41 | 9.49075 | -29.20760 | 33979 ft | 515 kts | 27° |
| 2026-05-07 13:42 | 9.55313 | -29.17178 | 33974 ft | 515 kts | 27° |
| 2026-05-07 13:42 | 9.61556 | -29.13590 | 33977 ft | 515 kts | 28° |
| 2026-05-07 13:43 | 9.67791 | -29.10007 | 33978 ft | 515 kts | 28° |
| 2026-05-07 13:43 | 9.74006 | -29.06433 | 33977 ft | 515 kts | 28° |
| 2026-05-07 13:44 | 9.80249 | -29.02843 | 33977 ft | 515 kts | 27° |
| 2026-05-07 13:44 | 9.86480 | -28.99247 | 33978 ft | 515 kts | 28° |
| 2026-05-07 13:45 | 9.92713 | -28.95645 | 33991 ft | 515 kts | 27° |
| 2026-05-07 13:45 | 9.98965 | -28.92045 | 33982 ft | 517 kts | 27° |
| 2026-05-07 13:46 | 10.05195 | -28.88450 | 33978 ft | 518 kts | 27° |
| 2026-05-07 13:46 | 10.11471 | -28.84829 | 33981 ft | 518 kts | 27° |
| 2026-05-07 13:47 | 10.17749 | -28.81207 | 33988 ft | 518 kts | 27° |
| 2026-05-07 13:47 | 10.23984 | -28.77609 | 33987 ft | 518 kts | 27° |
| 2026-05-07 13:48 | 10.30255 | -28.73987 | 33988 ft | 519 kts | 27° |
| 2026-05-07 13:48 | 10.36541 | -28.70358 | 33984 ft | 519 kts | 27° |
| 2026-05-07 13:49 | 10.42824 | -28.66728 | 33983 ft | 519 kts | 27° |
| 2026-05-07 13:49 | 10.49109 | -28.63094 | 33986 ft | 520 kts | 27° |
| 2026-05-07 13:50 | 10.55399 | -28.59455 | 33985 ft | 520 kts | 27° |
| 2026-05-07 13:50 | 10.61696 | -28.55809 | 33995 ft | 520 kts | 27° |
| 2026-05-07 13:51 | 10.67952 | -28.52187 | 33988 ft | 520 kts | 26° |
| 2026-05-07 13:51 | 10.74257 | -28.48538 | 33985 ft | 520 kts | 26° |
| 2026-05-07 13:52 | 10.80520 | -28.44910 | 33984 ft | 520 kts | 27° |
| 2026-05-07 13:52 | 10.86809 | -28.41263 | 33985 ft | 520 kts | 27° |
| 2026-05-07 13:53 | 10.93098 | -28.37615 | 33985 ft | 520 kts | 27° |
| 2026-05-07 13:53 | 10.99402 | -28.33954 | 33990 ft | 521 kts | 26° |
| 2026-05-07 13:54 | 11.05703 | -28.30298 | 33990 ft | 522 kts | 26° |
| 2026-05-07 13:54 | 11.12015 | -28.26633 | 33988 ft | 522 kts | 26° |
| 2026-05-07 13:55 | 11.18286 | -28.22988 | 33987 ft | 522 kts | 26° |
| 2026-05-07 13:55 | 11.24597 | -28.19317 | 33987 ft | 522 kts | 26° |
| 2026-05-07 13:56 | 11.30915 | -28.15641 | 34000 ft | 522 kts | 26° |
| 2026-05-07 13:56 | 11.37225 | -28.11967 | 33989 ft | 523 kts | 25° |
| 2026-05-07 13:57 | 11.43507 | -28.08310 | 33996 ft | 523 kts | 25° |
| 2026-05-07 13:57 | 11.49832 | -28.04625 | 33989 ft | 523 kts | 26° |
| 2026-05-07 13:58 | 11.56166 | -28.00931 | 33990 ft | 523 kts | 26° |
| 2026-05-07 13:58 | 11.62447 | -27.97267 | 33992 ft | 523 kts | 26° |
| 2026-05-07 13:59 | 11.68774 | -27.93572 | 33999 ft | 523 kts | 25° |
| 2026-05-07 13:59 | 11.75104 | -27.89876 | 33994 ft | 524 kts | 25° |
| 2026-05-07 14:00 | 11.81436 | -27.86178 | 33993 ft | 524 kts | 25° |
| 2026-05-07 14:00 | 11.87760 | -27.82480 | 33992 ft | 524 kts | 25° |
| 2026-05-07 14:01 | 11.94086 | -27.78780 | 33994 ft | 524 kts | 25° |
| 2026-05-07 14:01 | 12.00376 | -27.75100 | 34004 ft | 524 kts | 25° |
| 2026-05-07 14:02 | 12.06713 | -27.71388 | 33994 ft | 524 kts | 25° |
| 2026-05-07 14:02 | 12.13046 | -27.67676 | 33991 ft | 525 kts | 25° |
| 2026-05-07 14:03 | 12.19387 | -27.63960 | 34002 ft | 525 kts | 25° |
| 2026-05-07 14:03 | 12.25693 | -27.60263 | 33991 ft | 525 kts | 25° |
| 2026-05-07 14:04 | 12.32033 | -27.56541 | 33994 ft | 525 kts | 25° |
| 2026-05-07 14:04 | 12.38374 | -27.52818 | 34005 ft | 527 kts | 25° |
| 2026-05-07 14:05 | 12.44710 | -27.49097 | 33993 ft | 528 kts | 25° |
| 2026-05-07 14:05 | 12.51087 | -27.45348 | 33992 ft | 528 kts | 25° |
| 2026-05-07 14:06 | 12.57460 | -27.41599 | 33998 ft | 528 kts | 25° |
| 2026-05-07 14:06 | 12.63841 | -27.37845 | 33994 ft | 528 kts | 25° |
| 2026-05-07 14:07 | 12.70221 | -27.34087 | 34000 ft | 529 kts | 25° |
| 2026-05-07 14:07 | 12.76579 | -27.30341 | 33997 ft | 531 kts | 24° |
| 2026-05-07 14:08 | 12.82991 | -27.26563 | 33997 ft | 531 kts | 25° |
| 2026-05-07 14:08 | 12.89404 | -27.22776 | 33996 ft | 531 kts | 25° |
| 2026-05-07 14:09 | 12.95818 | -27.18990 | 34000 ft | 531 kts | 25° |
| 2026-05-07 14:09 | 13.02226 | -27.15205 | 33998 ft | 531 kts | 25° |
| 2026-05-07 14:10 | 13.08605 | -27.11436 | 33998 ft | 531 kts | 25° |
| 2026-05-07 14:10 | 13.15005 | -27.07652 | 33998 ft | 531 kts | 25° |
| 2026-05-07 14:11 | 13.21428 | -27.03853 | 33994 ft | 531 kts | 25° |
| 2026-05-07 14:11 | 13.27830 | -27.00062 | 33995 ft | 531 kts | 25° |
| 2026-05-07 14:12 | 13.34207 | -26.96285 | 33995 ft | 531 kts | 25° |
| 2026-05-07 14:12 | 13.40623 | -26.92482 | 34000 ft | 533 kts | 24° |
| 2026-05-07 14:13 | 13.47069 | -26.88660 | 33997 ft | 534 kts | 24° |
| 2026-05-07 14:13 | 13.53469 | -26.84865 | 33999 ft | 535 kts | 24° |
| 2026-05-07 14:14 | 13.59918 | -26.81030 | 33998 ft | 535 kts | 24° |
| 2026-05-07 14:14 | 13.66397 | -26.77179 | 33997 ft | 535 kts | 24° |
| 2026-05-07 14:15 | 13.72810 | -26.73370 | 34011 ft | 536 kts | 24° |
| 2026-05-07 14:15 | 13.79271 | -26.69523 | 33998 ft | 537 kts | 24° |
| 2026-05-07 14:16 | 13.85746 | -26.65667 | 34002 ft | 538 kts | 24° |
| 2026-05-07 14:16 | 13.92234 | -26.61797 | 34002 ft | 538 kts | 24° |
| 2026-05-07 14:17 | 13.98718 | -26.57936 | 33997 ft | 538 kts | 24° |
| 2026-05-07 14:17 | 14.05201 | -26.54068 | 34000 ft | 538 kts | 24° |
| 2026-05-07 14:18 | 14.11643 | -26.50223 | 34003 ft | 538 kts | 24° |
| 2026-05-07 14:18 | 14.18122 | -26.46353 | 33999 ft | 538 kts | 24° |
| 2026-05-07 14:19 | 14.24615 | -26.42473 | 33998 ft | 538 kts | 24° |
| 2026-05-07 14:19 | 14.31055 | -26.38622 | 33998 ft | 538 kts | 24° |
| 2026-05-07 14:20 | 14.37529 | -26.34747 | 33994 ft | 538 kts | 25° |
| 2026-05-07 14:20 | 14.43977 | -26.30820 | 34001 ft | 537 kts | 26° |
| 2026-05-07 14:21 | 14.50388 | -26.26923 | 34000 ft | 533 kts | 25° |
| 2026-05-07 14:21 | 14.56819 | -26.23095 | 33998 ft | 533 kts | 25° |
| 2026-05-07 14:22 | 14.63241 | -26.19250 | 33998 ft | 534 kts | 25° |
| 2026-05-07 14:22 | 14.69673 | -26.15396 | 33999 ft | 534 kts | 25° |
| 2026-05-07 14:23 | 14.76053 | -26.11570 | 34010 ft | 534 kts | 25° |
| 2026-05-07 14:23 | 14.82468 | -26.07718 | 33999 ft | 530 kts | 25° |
| 2026-05-07 14:24 | 14.88854 | -26.03880 | 33998 ft | 529 kts | 25° |
| 2026-05-07 14:24 | 14.95178 | -26.00077 | 33998 ft | 529 kts | 25° |
| 2026-05-07 14:25 | 15.01550 | -25.96243 | 33995 ft | 529 kts | 25° |
| 2026-05-07 14:25 | 15.07916 | -25.92409 | 33997 ft | 530 kts | 25° |
| 2026-05-07 14:26 | 15.14257 | -25.88588 | 33995 ft | 529 kts | 26° |
| 2026-05-07 14:26 | 15.20610 | -25.84754 | 33997 ft | 528 kts | 26° |
| 2026-05-07 14:27 | 15.26966 | -25.80916 | 33992 ft | 528 kts | 26° |
| 2026-05-07 14:27 | 15.32257 | -25.77718 | 34002 ft | 528 kts | 26° |
| 2026-05-07 14:28 | 15.38604 | -25.73880 | 33993 ft | 528 kts | 26° |
| 2026-05-07 14:28 | 15.44957 | -25.70034 | 34011 ft | 528 kts | 26° |
| 2026-05-07 14:29 | 15.51267 | -25.66210 | 34001 ft | 528 kts | 26° |
| 2026-05-07 14:29 | 15.57611 | -25.62363 | 33998 ft | 528 kts | 26° |
| 2026-05-07 14:30 | 15.63974 | -25.58503 | 33997 ft | 529 kts | 26° |
| 2026-05-07 14:30 | 15.70337 | -25.54639 | 34000 ft | 529 kts | 26° |
| 2026-05-07 14:31 | 15.76651 | -25.50800 | 34000 ft | 529 kts | 26° |
| 2026-05-07 14:31 | 15.83011 | -25.46931 | 34002 ft | 528 kts | 26° |
| 2026-05-07 14:32 | 15.89307 | -25.43096 | 34005 ft | 526 kts | 26° |
| 2026-05-07 14:32 | 15.95631 | -25.39241 | 34001 ft | 526 kts | 26° |
| 2026-05-07 14:33 | 16.01946 | -25.35390 | 33991 ft | 526 kts | 26° |
| 2026-05-07 14:33 | 16.08273 | -25.31528 | 33995 ft | 526 kts | 26° |
| 2026-05-07 14:34 | 16.14584 | -25.27672 | 34003 ft | 526 kts | 27° |
| 2026-05-07 14:34 | 16.20819 | -25.23854 | 33993 ft | 520 kts | 27° |
| 2026-05-07 14:35 | 16.27045 | -25.20043 | 33977 ft | 519 kts | 27° |
| 2026-05-07 14:35 | 16.33275 | -25.16226 | 33966 ft | 518 kts | 27° |
| 2026-05-07 14:36 | 16.39496 | -25.12409 | 33966 ft | 518 kts | 27° |
| 2026-05-07 14:36 | 16.45710 | -25.08595 | 33965 ft | 518 kts | 27° |
| 2026-05-07 14:37 | 16.51887 | -25.04799 | 33968 ft | 518 kts | 27° |
| 2026-05-07 14:37 | 16.61213 | -24.99066 | 33969 ft | 519 kts | 27° |
| 2026-05-07 14:38 | 16.67451 | -24.95228 | 33985 ft | 520 kts | 27° |
| 2026-05-07 14:38 | 16.73683 | -24.91389 | 33987 ft | 520 kts | 27° |
| 2026-05-07 14:39 | 16.79886 | -24.87564 | 33987 ft | 520 kts | 27° |
| 2026-05-07 14:39 | 16.86101 | -24.83728 | 33976 ft | 515 kts | 28° |
| 2026-05-07 14:40 | 16.92237 | -24.79929 | 33976 ft | 510 kts | 28° |
| 2026-05-07 14:40 | 16.98353 | -24.76143 | 33997 ft | 509 kts | 28° |
| 2026-05-07 14:41 | 17.04449 | -24.72365 | 33998 ft | 509 kts | 28° |
| 2026-05-07 14:41 | 17.10512 | -24.68605 | 34019 ft | 510 kts | 27° |
| 2026-05-07 14:42 | 17.16629 | -24.64811 | 34001 ft | 512 kts | 27° |
| 2026-05-07 14:42 | 17.22736 | -24.61017 | 33995 ft | 506 kts | 28° |
| 2026-05-07 14:43 | 17.28777 | -24.57258 | 34011 ft | 504 kts | 28° |
| 2026-05-07 14:43 | 17.34793 | -24.53514 | 34104 ft | 502 kts | 28° |
| 2026-05-07 14:44 | 17.37798 | -24.51643 | 34228 ft | 503 kts | 28° |
| 2026-05-07 14:44 | 17.40806 | -24.49771 | 34340 ft | 503 kts | 28° |
| 2026-05-07 14:44 | 17.43823 | -24.47892 | 34459 ft | 503 kts | 28° |
| 2026-05-07 14:44 | 17.46828 | -24.46019 | 34568 ft | 504 kts | 28° |
| 2026-05-07 14:45 | 17.49848 | -24.44136 | 34686 ft | 504 kts | 28° |
| 2026-05-07 14:45 | 17.52831 | -24.42277 | 34813 ft | 504 kts | 28° |
| 2026-05-07 14:45 | 17.55846 | -24.40395 | 34940 ft | 503 kts | 28° |
| 2026-05-07 14:45 | 17.58849 | -24.38519 | 34980 ft | 502 kts | 28° |
| 2026-05-07 14:46 | 17.64856 | -24.34768 | 35013 ft | 502 kts | 28° |
| 2026-05-07 14:46 | 17.70828 | -24.31036 | 35011 ft | 502 kts | 28° |
| 2026-05-07 14:47 | 17.76829 | -24.27293 | 34997 ft | 502 kts | 28° |
| 2026-05-07 14:47 | 17.82838 | -24.23546 | 35000 ft | 502 kts | 28° |
| 2026-05-07 14:48 | 17.88837 | -24.19803 | 35017 ft | 500 kts | 28° |
| 2026-05-07 14:48 | 17.94803 | -24.16075 | 35015 ft | 497 kts | 28° |
| 2026-05-07 14:49 | 18.00743 | -24.12362 | 35016 ft | 496 kts | 28° |
| 2026-05-07 14:49 | 18.06679 | -24.08650 | 35004 ft | 496 kts | 28° |
| 2026-05-07 14:50 | 18.12615 | -24.04934 | 35005 ft | 497 kts | 28° |
| 2026-05-07 14:50 | 18.18531 | -24.01230 | 35012 ft | 498 kts | 28° |
| 2026-05-07 14:51 | 18.24481 | -23.97499 | 35003 ft | 495 kts | 29° |
| 2026-05-07 14:51 | 18.30383 | -23.93793 | 35004 ft | 492 kts | 29° |
| 2026-05-07 14:52 | 18.36263 | -23.90099 | 35010 ft | 492 kts | 29° |
| 2026-05-07 14:52 | 18.42147 | -23.86400 | 35005 ft | 492 kts | 29° |
| 2026-05-07 14:53 | 18.48024 | -23.82706 | 35006 ft | 492 kts | 29° |
| 2026-05-07 14:53 | 18.53867 | -23.79030 | 35004 ft | 492 kts | 29° |
| 2026-05-07 14:54 | 18.59738 | -23.75335 | 35002 ft | 489 kts | 29° |
| 2026-05-07 14:54 | 18.65575 | -23.71656 | 35008 ft | 488 kts | 29° |
| 2026-05-07 14:55 | 18.71410 | -23.67971 | 35008 ft | 488 kts | 29° |
| 2026-05-07 14:55 | 18.77209 | -23.64311 | 35008 ft | 488 kts | 29° |
| 2026-05-07 14:56 | 18.83039 | -23.60628 | 35009 ft | 488 kts | 29° |
| 2026-05-07 14:56 | 18.88879 | -23.56933 | 35005 ft | 488 kts | 29° |
| 2026-05-07 14:57 | 18.94710 | -23.53240 | 35008 ft | 488 kts | 28° |
| 2026-05-07 14:57 | 19.00532 | -23.49554 | 35007 ft | 488 kts | 28° |
| 2026-05-07 14:58 | 19.06326 | -23.45881 | 35005 ft | 488 kts | 28° |
| 2026-05-07 14:58 | 19.12145 | -23.42188 | 35014 ft | 488 kts | 28° |
| 2026-05-07 14:59 | 19.17969 | -23.38489 | 35008 ft | 488 kts | 28° |
| 2026-05-07 14:59 | 19.23809 | -23.34777 | 35011 ft | 489 kts | 28° |
| 2026-05-07 15:00 | 19.29614 | -23.31084 | 35005 ft | 488 kts | 28° |
| 2026-05-07 15:00 | 19.35434 | -23.27380 | 35007 ft | 488 kts | 28° |
| 2026-05-07 15:01 | 19.41252 | -23.23672 | 35006 ft | 488 kts | 28° |
| 2026-05-07 15:01 | 19.47076 | -23.19958 | 35003 ft | 488 kts | 28° |
| 2026-05-07 15:02 | 19.52900 | -23.16241 | 35003 ft | 488 kts | 28° |
| 2026-05-07 15:02 | 19.58690 | -23.12542 | 35018 ft | 488 kts | 28° |
| 2026-05-07 15:03 | 19.64507 | -23.08824 | 35005 ft | 488 kts | 28° |
| 2026-05-07 15:03 | 19.70335 | -23.05093 | 35004 ft | 489 kts | 28° |
| 2026-05-07 15:04 | 19.76134 | -23.01382 | 35007 ft | 489 kts | 28° |
| 2026-05-07 15:04 | 19.81965 | -22.97645 | 35003 ft | 489 kts | 28° |
| 2026-05-07 15:05 | 19.87795 | -22.93904 | 35008 ft | 489 kts | 28° |
| 2026-05-07 15:05 | 19.93593 | -22.90181 | 35004 ft | 489 kts | 28° |
| 2026-05-07 15:06 | 19.99448 | -22.86417 | 35007 ft | 489 kts | 28° |
| 2026-05-07 15:06 | 20.05238 | -22.82692 | 35005 ft | 489 kts | 28° |
| 2026-05-07 15:07 | 20.11066 | -22.78941 | 35004 ft | 489 kts | 28° |
| 2026-05-07 15:07 | 20.16896 | -22.75184 | 35013 ft | 490 kts | 28° |
| 2026-05-07 15:08 | 20.22701 | -22.71441 | 35004 ft | 490 kts | 28° |
| 2026-05-07 15:08 | 20.28536 | -22.67676 | 35009 ft | 491 kts | 28° |
| 2026-05-07 15:09 | 20.34384 | -22.63898 | 35005 ft | 491 kts | 28° |
| 2026-05-07 15:09 | 20.40241 | -22.60110 | 35008 ft | 491 kts | 28° |
| 2026-05-07 15:10 | 20.46046 | -22.56354 | 35004 ft | 491 kts | 28° |
| 2026-05-07 15:10 | 20.51890 | -22.52569 | 35004 ft | 491 kts | 28° |
| 2026-05-07 15:11 | 20.57732 | -22.48778 | 35006 ft | 491 kts | 28° |
| 2026-05-07 15:11 | 20.63589 | -22.44977 | 34996 ft | 492 kts | 27° |
| 2026-05-07 15:12 | 20.69452 | -22.41171 | 34995 ft | 493 kts | 27° |
| 2026-05-07 15:12 | 20.75280 | -22.37382 | 35005 ft | 493 kts | 28° |
| 2026-05-07 15:13 | 20.81148 | -22.33562 | 35001 ft | 493 kts | 28° |
| 2026-05-07 15:13 | 20.87017 | -22.29740 | 35009 ft | 493 kts | 28° |
| 2026-05-07 15:14 | 20.92885 | -22.25913 | 35000 ft | 493 kts | 28° |
| 2026-05-07 15:14 | 20.97762 | -22.22730 | 35007 ft | 494 kts | 27° |
| 2026-05-07 15:15 | 21.04609 | -22.18261 | 35003 ft | 495 kts | 27° |
| 2026-05-07 15:15 | 21.09497 | -22.15066 | 35005 ft | 495 kts | 27° |
| 2026-05-07 15:16 | 21.15375 | -22.11220 | 35004 ft | 495 kts | 27° |
| 2026-05-07 15:16 | 21.21259 | -22.07365 | 35006 ft | 495 kts | 27° |
| 2026-05-07 15:17 | 21.27137 | -22.03511 | 35005 ft | 495 kts | 27° |
| 2026-05-07 15:17 | 21.32989 | -21.99667 | 35008 ft | 496 kts | 27° |
| 2026-05-07 15:18 | 21.38871 | -21.95797 | 35003 ft | 496 kts | 28° |
| 2026-05-07 15:18 | 21.44722 | -21.91859 | 35002 ft | 496 kts | 28° |
| 2026-05-07 15:19 | 21.50586 | -21.87942 | 35009 ft | 496 kts | 27° |
| 2026-05-07 15:19 | 21.56480 | -21.84049 | 35005 ft | 496 kts | 27° |
| 2026-05-07 15:20 | 21.62336 | -21.80182 | 35029 ft | 496 kts | 27° |
| 2026-05-07 15:20 | 21.68217 | -21.76297 | 35003 ft | 497 kts | 27° |
| 2026-05-07 15:21 | 21.74124 | -21.72391 | 35001 ft | 497 kts | 27° |
| 2026-05-07 15:21 | 21.80018 | -21.68490 | 35001 ft | 497 kts | 27° |
| 2026-05-07 15:22 | 21.85912 | -21.64589 | 35003 ft | 497 kts | 27° |
| 2026-05-07 15:22 | 21.91774 | -21.60673 | 35012 ft | 497 kts | 28° |
| 2026-05-07 15:23 | 21.97663 | -21.56771 | 35010 ft | 497 kts | 27° |
| 2026-05-07 15:23 | 22.03582 | -21.52869 | 35006 ft | 498 kts | 27° |
| 2026-05-07 15:24 | 22.09452 | -21.48969 | 35005 ft | 498 kts | 27° |
| 2026-05-07 15:24 | 22.15350 | -21.45046 | 35011 ft | 498 kts | 27° |
| 2026-05-07 15:25 | 22.21259 | -21.41112 | 35007 ft | 499 kts | 27° |
| 2026-05-07 15:25 | 22.27169 | -21.37172 | 35006 ft | 499 kts | 27° |
| 2026-05-07 15:26 | 22.33081 | -21.33227 | 35010 ft | 499 kts | 27° |
| 2026-05-07 15:26 | 22.38988 | -21.29282 | 35005 ft | 499 kts | 27° |
| 2026-05-07 15:27 | 22.44856 | -21.25359 | 35005 ft | 499 kts | 27° |
| 2026-05-07 15:27 | 22.50768 | -21.21402 | 35006 ft | 499 kts | 27° |
| 2026-05-07 15:28 | 22.56679 | -21.17441 | 35010 ft | 499 kts | 27° |
| 2026-05-07 15:28 | 22.62550 | -21.13503 | 35024 ft | 499 kts | 27° |
| 2026-05-07 15:29 | 22.68464 | -21.09534 | 35010 ft | 500 kts | 27° |
| 2026-05-07 15:29 | 22.74376 | -21.05561 | 35003 ft | 500 kts | 27° |
| 2026-05-07 15:30 | 22.80288 | -21.01583 | 35009 ft | 500 kts | 27° |
| 2026-05-07 15:30 | 22.86213 | -20.97593 | 35004 ft | 500 kts | 27° |
| 2026-05-07 15:31 | 22.92085 | -20.93635 | 35006 ft | 500 kts | 27° |
| 2026-05-07 15:31 | 22.98003 | -20.89641 | 35009 ft | 500 kts | 27° |
| 2026-05-07 15:32 | 23.03922 | -20.85643 | 35008 ft | 501 kts | 27° |
| 2026-05-07 15:32 | 23.09837 | -20.81644 | 35006 ft | 501 kts | 27° |
| 2026-05-07 15:33 | 23.15722 | -20.77663 | 35007 ft | 501 kts | 27° |
| 2026-05-07 15:33 | 23.21651 | -20.73644 | 35007 ft | 502 kts | 27° |
| 2026-05-07 15:34 | 23.27576 | -20.69624 | 35007 ft | 502 kts | 28° |
| 2026-05-07 15:34 | 23.33505 | -20.65596 | 35007 ft | 502 kts | 28° |
| 2026-05-07 15:35 | 23.39427 | -20.61571 | 35007 ft | 502 kts | 28° |
| 2026-05-07 15:35 | 23.45317 | -20.57564 | 35006 ft | 502 kts | 28° |
| 2026-05-07 15:36 | 23.51244 | -20.53525 | 35005 ft | 502 kts | 28° |
| 2026-05-07 15:36 | 23.57176 | -20.49479 | 35005 ft | 502 kts | 28° |
| 2026-05-07 15:37 | 23.63096 | -20.45437 | 35013 ft | 502 kts | 28° |
| 2026-05-07 15:37 | 23.69027 | -20.41384 | 34996 ft | 503 kts | 28° |
| 2026-05-07 15:38 | 23.74925 | -20.37350 | 35014 ft | 504 kts | 28° |
| 2026-05-07 15:38 | 23.80861 | -20.33282 | 34991 ft | 504 kts | 28° |
| 2026-05-07 15:39 | 23.86803 | -20.29208 | 35013 ft | 504 kts | 28° |
| 2026-05-07 15:39 | 23.92738 | -20.25135 | 35000 ft | 504 kts | 28° |
| 2026-05-07 15:40 | 23.98689 | -20.21047 | 35011 ft | 504 kts | 28° |
| 2026-05-07 15:40 | 24.04594 | -20.16984 | 35005 ft | 504 kts | 28° |
| 2026-05-07 15:41 | 24.10533 | -20.12894 | 35010 ft | 504 kts | 28° |
| 2026-05-07 15:41 | 24.16486 | -20.08789 | 35004 ft | 505 kts | 28° |
| 2026-05-07 15:42 | 24.22445 | -20.04674 | 34999 ft | 506 kts | 28° |
| 2026-05-07 15:42 | 24.28367 | -20.00585 | 35021 ft | 506 kts | 28° |
| 2026-05-07 15:43 | 24.34330 | -19.96458 | 35008 ft | 506 kts | 28° |
| 2026-05-07 15:43 | 24.40302 | -19.92323 | 34997 ft | 506 kts | 28° |
| 2026-05-07 15:44 | 24.46255 | -19.88199 | 35006 ft | 506 kts | 28° |
| 2026-05-07 15:44 | 24.52219 | -19.84059 | 35001 ft | 507 kts | 28° |
| 2026-05-07 15:45 | 24.58142 | -19.79940 | 35005 ft | 507 kts | 28° |
| 2026-05-07 15:45 | 24.64112 | -19.75788 | 35010 ft | 508 kts | 28° |
| 2026-05-07 15:46 | 24.73085 | -19.69536 | 35004 ft | 508 kts | 28° |
| 2026-05-07 15:47 | 24.79055 | -19.65373 | 35000 ft | 508 kts | 28° |
| 2026-05-07 15:47 | 24.85036 | -19.61193 | 35002 ft | 509 kts | 28° |
| 2026-05-07 15:48 | 24.91011 | -19.57016 | 35004 ft | 509 kts | 28° |
| 2026-05-07 15:48 | 24.96985 | -19.52833 | 35003 ft | 508 kts | 28° |
| 2026-05-07 15:49 | 25.02922 | -19.48671 | 35007 ft | 508 kts | 28° |
| 2026-05-07 15:49 | 25.08901 | -19.44483 | 35008 ft | 509 kts | 28° |
| 2026-05-07 15:50 | 25.14879 | -19.40282 | 34993 ft | 510 kts | 28° |
| 2026-05-07 15:50 | 25.20876 | -19.36056 | 35011 ft | 510 kts | 28° |
| 2026-05-07 15:51 | 25.26825 | -19.31873 | 35015 ft | 510 kts | 28° |
| 2026-05-07 15:51 | 25.32804 | -19.27653 | 35001 ft | 510 kts | 27° |
| 2026-05-07 15:52 | 25.38792 | -19.23426 | 35003 ft | 510 kts | 27° |
| 2026-05-07 15:52 | 25.44780 | -19.19196 | 35000 ft | 510 kts | 28° |
| 2026-05-07 15:53 | 25.50727 | -19.14989 | 34999 ft | 510 kts | 27° |
| 2026-05-07 15:53 | 25.56715 | -19.10752 | 35004 ft | 510 kts | 27° |
| 2026-05-07 15:54 | 25.62701 | -19.06496 | 35012 ft | 511 kts | 27° |
| 2026-05-07 15:54 | 25.68693 | -19.02247 | 35001 ft | 511 kts | 27° |
| 2026-05-07 15:55 | 25.74649 | -18.98027 | 34999 ft | 511 kts | 27° |
| 2026-05-07 15:55 | 25.80639 | -18.93759 | 34999 ft | 511 kts | 27° |
| 2026-05-07 15:56 | 25.86596 | -18.89512 | 35001 ft | 511 kts | 27° |
| 2026-05-07 15:56 | 25.92595 | -18.85235 | 35012 ft | 511 kts | 27° |
| 2026-05-07 15:57 | 25.98581 | -18.80951 | 35001 ft | 511 kts | 27° |
| 2026-05-07 15:57 | 26.04518 | -18.76578 | 35000 ft | 512 kts | 28° |
| 2026-05-07 15:58 | 26.10457 | -18.72188 | 35004 ft | 512 kts | 28° |
| 2026-05-07 15:58 | 26.16428 | -18.67879 | 35004 ft | 511 kts | 27° |
| 2026-05-07 15:59 | 26.22372 | -18.63603 | 35004 ft | 511 kts | 27° |
| 2026-05-07 15:59 | 26.28359 | -18.59295 | 35009 ft | 512 kts | 27° |
| 2026-05-07 16:00 | 26.34348 | -18.54981 | 35004 ft | 512 kts | 27° |
| 2026-05-07 16:00 | 26.40334 | -18.50669 | 35006 ft | 512 kts | 27° |
| 2026-05-07 16:01 | 26.46294 | -18.46368 | 35006 ft | 512 kts | 27° |
| 2026-05-07 16:01 | 26.52276 | -18.42042 | 35010 ft | 512 kts | 27° |
| 2026-05-07 16:02 | 26.58273 | -18.37709 | 35007 ft | 512 kts | 27° |
| 2026-05-07 16:02 | 26.64229 | -18.33398 | 35012 ft | 512 kts | 27° |
| 2026-05-07 16:03 | 26.70209 | -18.29061 | 35007 ft | 512 kts | 27° |
| 2026-05-07 16:03 | 26.76189 | -18.24706 | 35007 ft | 512 kts | 28° |
| 2026-05-07 16:04 | 26.82170 | -18.20346 | 35010 ft | 512 kts | 27° |
| 2026-05-07 16:04 | 26.88122 | -18.16038 | 35026 ft | 512 kts | 27° |
| 2026-05-07 16:05 | 26.94104 | -18.11683 | 35015 ft | 513 kts | 27° |
| 2026-05-07 16:05 | 27.00094 | -18.07314 | 35017 ft | 513 kts | 27° |
| 2026-05-07 16:06 | 27.05075 | -18.03677 | 35018 ft | 513 kts | 27° |
| 2026-05-07 16:06 | 27.12032 | -17.98590 | 35021 ft | 513 kts | 27° |
| 2026-05-07 16:07 | 27.17017 | -17.94939 | 35025 ft | 513 kts | 27° |
| 2026-05-07 16:07 | 27.23004 | -17.90548 | 35021 ft | 513 kts | 27° |
| 2026-05-07 16:08 | 27.28983 | -17.86161 | 35016 ft | 513 kts | 27° |
| 2026-05-07 16:08 | 27.34971 | -17.81760 | 35015 ft | 513 kts | 27° |
| 2026-05-07 16:09 | 27.40935 | -17.77369 | 35013 ft | 513 kts | 27° |
| 2026-05-07 16:09 | 27.46911 | -17.72964 | 35023 ft | 513 kts | 27° |
| 2026-05-07 16:10 | 27.52895 | -17.68549 | 35034 ft | 514 kts | 27° |
| 2026-05-07 16:10 | 27.58879 | -17.64129 | 35020 ft | 515 kts | 27° |
| 2026-05-07 16:11 | 27.64830 | -17.59727 | 35020 ft | 515 kts | 27° |
| 2026-05-07 16:11 | 27.70834 | -17.55278 | 35020 ft | 515 kts | 27° |
| 2026-05-07 16:12 | 27.76831 | -17.50827 | 35019 ft | 515 kts | 27° |
| 2026-05-07 16:12 | 27.82820 | -17.46378 | 35059 ft | 515 kts | 27° |
| 2026-05-07 16:13 | 27.88781 | -17.41943 | 35038 ft | 516 kts | 26° |
| 2026-05-07 16:13 | 27.94785 | -17.37474 | 35037 ft | 516 kts | 26° |
| 2026-05-07 16:14 | 28.00858 | -17.33149 | 35043 ft | 511 kts | 21° |
| 2026-05-07 16:14 | 28.07146 | -17.29378 | 35046 ft | 511 kts | 21° |
| 2026-05-07 16:15 | 28.13400 | -17.25541 | 35018 ft | 511 kts | 21° |
| 2026-05-07 16:15 | 28.19658 | -17.21759 | 35032 ft | 512 kts | 20° |
| 2026-05-07 16:16 | 28.25977 | -17.17997 | 35022 ft | 512 kts | 20° |
| 2026-05-07 16:16 | 28.32294 | -17.14224 | 35018 ft | 512 kts | 20° |
| 2026-05-07 16:17 | 28.38612 | -17.10448 | 35023 ft | 512 kts | 20° |
| 2026-05-07 16:17 | 28.44888 | -17.06694 | 35054 ft | 512 kts | 20° |
| 2026-05-07 16:18 | 28.51231 | -17.02899 | 35024 ft | 514 kts | 20° |
| 2026-05-07 16:18 | 28.57558 | -16.99104 | 35019 ft | 515 kts | 20° |
| 2026-05-07 16:19 | 28.63892 | -16.95299 | 35023 ft | 515 kts | 20° |
| 2026-05-07 16:19 | 28.70190 | -16.91511 | 35019 ft | 515 kts | 20° |
| 2026-05-07 16:20 | 28.76523 | -16.87697 | 35043 ft | 515 kts | 20° |
| 2026-05-07 16:20 | 28.82870 | -16.83877 | 35022 ft | 517 kts | 20° |
| 2026-05-07 16:21 | 28.89244 | -16.80030 | 35019 ft | 518 kts | 20° |
| 2026-05-07 16:21 | 28.95620 | -16.76170 | 35035 ft | 517 kts | 20° |
| 2026-05-07 16:21 | 28.98799 | -16.74246 | 35160 ft | 517 kts | 20° |
| 2026-05-07 16:22 | 29.01978 | -16.72319 | 35278 ft | 517 kts | 20° |
| 2026-05-07 16:22 | 29.05114 | -16.70419 | 35399 ft | 517 kts | 20° |
| 2026-05-07 16:22 | 29.08299 | -16.68489 | 35570 ft | 517 kts | 19° |
| 2026-05-07 16:22 | 29.11481 | -16.66559 | 35696 ft | 518 kts | 19° |
| 2026-05-07 16:23 | 29.14665 | -16.64625 | 35813 ft | 518 kts | 19° |
| 2026-05-07 16:23 | 29.17852 | -16.62687 | 35969 ft | 518 kts | 19° |
| 2026-05-07 16:23 | 29.21043 | -16.60746 | 35989 ft | 518 kts | 19° |
| 2026-05-07 16:24 | 29.27408 | -16.56868 | 36006 ft | 517 kts | 19° |
| 2026-05-07 16:24 | 29.33723 | -16.53016 | 36009 ft | 517 kts | 19° |
| 2026-05-07 16:25 | 29.40083 | -16.49133 | 36011 ft | 518 kts | 19° |
| 2026-05-07 16:25 | 29.46450 | -16.45242 | 36008 ft | 519 kts | 19° |
| 2026-05-07 16:26 | 29.52828 | -16.41336 | 36008 ft | 519 kts | 19° |
| 2026-05-07 16:26 | 29.59206 | -16.37424 | 36010 ft | 519 kts | 19° |
| 2026-05-07 16:27 | 29.65578 | -16.33510 | 36009 ft | 519 kts | 19° |
| 2026-05-07 16:27 | 29.71926 | -16.29606 | 36005 ft | 520 kts | 19° |
| 2026-05-07 16:28 | 29.78312 | -16.25673 | 36007 ft | 520 kts | 19° |
| 2026-05-07 16:28 | 29.84699 | -16.21735 | 36004 ft | 520 kts | 19° |
| 2026-05-07 16:29 | 29.91077 | -16.17794 | 36002 ft | 520 kts | 20° |
| 2026-05-07 16:29 | 29.97456 | -16.13845 | 36019 ft | 521 kts | 19° |
| 2026-05-07 16:30 | 30.03835 | -16.09898 | 36002 ft | 524 kts | 19° |
| 2026-05-07 16:30 | 30.10280 | -16.05900 | 36001 ft | 525 kts | 19° |
| 2026-05-07 16:31 | 30.16720 | -16.01897 | 36000 ft | 526 kts | 19° |
| 2026-05-07 16:31 | 30.23159 | -15.97888 | 35997 ft | 526 kts | 19° |
| 2026-05-07 16:32 | 30.29581 | -15.93892 | 36006 ft | 527 kts | 19° |
| 2026-05-07 16:32 | 30.36054 | -15.89861 | 36000 ft | 528 kts | 19° |
| 2026-05-07 16:33 | 30.42530 | -15.85805 | 35997 ft | 528 kts | 19° |
| 2026-05-07 16:33 | 30.48966 | -15.81776 | 35997 ft | 529 kts | 19° |
| 2026-05-07 16:34 | 30.55447 | -15.77712 | 36068 ft | 529 kts | 19° |
| 2026-05-07 16:34 | 30.61947 | -15.73633 | 36005 ft | 532 kts | 19° |
| 2026-05-07 16:35 | 30.68436 | -15.69556 | 35999 ft | 533 kts | 19° |
| 2026-05-07 16:35 | 30.74958 | -15.65446 | 35997 ft | 533 kts | 19° |
| 2026-05-07 16:36 | 30.81487 | -15.61325 | 35986 ft | 533 kts | 20° |
| 2026-05-07 16:36 | 30.88004 | -15.57206 | 36016 ft | 534 kts | 20° |
| 2026-05-07 16:37 | 30.94546 | -15.53069 | 35998 ft | 536 kts | 20° |
| 2026-05-07 16:37 | 31.01064 | -15.48937 | 35999 ft | 536 kts | 20° |
| 2026-05-07 16:38 | 31.07630 | -15.44768 | 35997 ft | 537 kts | 20° |
| 2026-05-07 16:38 | 31.14196 | -15.40593 | 36041 ft | 537 kts | 20° |
| 2026-05-07 16:39 | 31.20777 | -15.36404 | 36003 ft | 539 kts | 20° |
| 2026-05-07 16:39 | 31.27342 | -15.32214 | 35993 ft | 540 kts | 21° |
| 2026-05-07 16:40 | 31.33785 | -15.27521 | 35992 ft | 548 kts | 27° |
| 2026-05-07 16:40 | 31.40072 | -15.22467 | 35994 ft | 548 kts | 26° |
| 2026-05-07 16:41 | 31.46429 | -15.17533 | 36005 ft | 548 kts | 26° |
| 2026-05-07 16:41 | 31.52772 | -15.12623 | 35997 ft | 550 kts | 26° |
| 2026-05-07 16:42 | 31.59178 | -15.07639 | 35996 ft | 551 kts | 26° |
| 2026-05-07 16:42 | 31.65576 | -15.02665 | 35997 ft | 551 kts | 26° |
| 2026-05-07 16:43 | 31.71914 | -14.97722 | 35995 ft | 551 kts | 26° |
| 2026-05-07 16:43 | 31.78315 | -14.92723 | 35983 ft | 552 kts | 27° |
| 2026-05-07 16:44 | 31.84709 | -14.87684 | 35991 ft | 552 kts | 27° |
| 2026-05-07 16:44 | 31.91118 | -14.82689 | 35990 ft | 552 kts | 27° |
| 2026-05-07 16:45 | 31.97492 | -14.77700 | 35988 ft | 553 kts | 27° |
| 2026-05-07 16:45 | 32.03891 | -14.72672 | 36019 ft | 553 kts | 28° |
| 2026-05-07 16:46 | 32.10299 | -14.67627 | 35994 ft | 553 kts | 28° |
| 2026-05-07 16:46 | 32.16704 | -14.62575 | 35986 ft | 554 kts | 28° |
| 2026-05-07 16:47 | 32.23107 | -14.57516 | 35983 ft | 554 kts | 28° |
| 2026-05-07 16:47 | 32.29510 | -14.52450 | 35979 ft | 553 kts | 28° |
| 2026-05-07 16:48 | 32.35863 | -14.47417 | 35992 ft | 553 kts | 29° |
| 2026-05-07 16:48 | 32.42250 | -14.42344 | 35986 ft | 553 kts | 29° |
| 2026-05-07 16:49 | 32.48639 | -14.37262 | 35984 ft | 553 kts | 29° |
| 2026-05-07 16:49 | 32.55035 | -14.32167 | 35982 ft | 553 kts | 29° |
| 2026-05-07 16:50 | 32.61430 | -14.27063 | 35982 ft | 553 kts | 29° |
| 2026-05-07 16:50 | 32.67829 | -14.21947 | 35982 ft | 554 kts | 29° |
| 2026-05-07 16:51 | 32.74173 | -14.16865 | 35983 ft | 552 kts | 30° |
| 2026-05-07 16:51 | 32.80547 | -14.11750 | 35984 ft | 552 kts | 30° |
| 2026-05-07 16:52 | 32.86909 | -14.06637 | 35988 ft | 552 kts | 30° |
| 2026-05-07 16:52 | 32.93270 | -14.01514 | 35994 ft | 552 kts | 30° |
| 2026-05-07 16:53 | 32.99611 | -13.96401 | 35988 ft | 552 kts | 30° |
| 2026-05-07 16:53 | 33.05978 | -13.91256 | 35989 ft | 552 kts | 30° |
| 2026-05-07 16:54 | 33.12353 | -13.86097 | 35989 ft | 552 kts | 30° |
| 2026-05-07 16:54 | 33.18658 | -13.80942 | 36015 ft | 552 kts | 31° |
| 2026-05-07 16:55 | 33.24935 | -13.75668 | 35976 ft | 551 kts | 32° |
| 2026-05-07 16:55 | 33.30214 | -13.71282 | 35997 ft | 551 kts | 31° |
| 2026-05-07 16:56 | 33.36511 | -13.66100 | 35995 ft | 551 kts | 31° |
| 2026-05-07 16:56 | 33.46002 | -13.58272 | 35991 ft | 551 kts | 31° |
| 2026-05-07 16:57 | 33.52278 | -13.53087 | 35988 ft | 551 kts | 32° |
| 2026-05-07 16:57 | 33.58589 | -13.47863 | 35952 ft | 551 kts | 32° |
| 2026-05-07 16:58 | 33.64894 | -13.42638 | 35967 ft | 550 kts | 32° |
| 2026-05-07 16:58 | 33.71183 | -13.37418 | 35974 ft | 549 kts | 32° |
| 2026-05-07 16:59 | 33.77471 | -13.32193 | 36000 ft | 550 kts | 32° |
| 2026-05-07 16:59 | 33.83768 | -13.26948 | 35981 ft | 549 kts | 32° |
| 2026-05-07 17:00 | 33.90051 | -13.21702 | 35978 ft | 550 kts | 32° |
| 2026-05-07 17:00 | 33.96301 | -13.16483 | 35979 ft | 550 kts | 32° |
| 2026-05-07 17:01 | 34.02579 | -13.11219 | 35954 ft | 549 kts | 32° |
| 2026-05-07 17:01 | 34.08859 | -13.05949 | 35978 ft | 548 kts | 33° |
| 2026-05-07 17:02 | 34.15113 | -13.00693 | 35973 ft | 548 kts | 33° |
| 2026-05-07 17:02 | 34.21346 | -12.95436 | 35971 ft | 548 kts | 33° |
| 2026-05-07 17:03 | 34.27619 | -12.90154 | 35967 ft | 548 kts | 33° |
| 2026-05-07 17:03 | 34.33885 | -12.84851 | 35985 ft | 549 kts | 33° |
| 2026-05-07 17:04 | 34.40107 | -12.79582 | 35972 ft | 549 kts | 33° |
| 2026-05-07 17:04 | 34.46378 | -12.74305 | 35947 ft | 548 kts | 33° |
| 2026-05-07 17:05 | 34.52649 | -12.69026 | 35960 ft | 547 kts | 33° |
| 2026-05-07 17:05 | 34.58873 | -12.63786 | 35994 ft | 547 kts | 33° |
| 2026-05-07 17:06 | 34.65114 | -12.58520 | 35967 ft | 547 kts | 33° |
| 2026-05-07 17:06 | 34.71373 | -12.53226 | 35961 ft | 547 kts | 33° |
| 2026-05-07 17:07 | 34.77617 | -12.47936 | 35965 ft | 547 kts | 33° |
| 2026-05-07 17:07 | 34.83860 | -12.42638 | 35961 ft | 547 kts | 33° |
| 2026-05-07 17:08 | 34.90119 | -12.37316 | 35963 ft | 546 kts | 33° |
| 2026-05-07 17:08 | 34.96313 | -12.32039 | 35964 ft | 546 kts | 33° |
| 2026-05-07 17:09 | 35.02535 | -12.26729 | 35964 ft | 546 kts | 33° |
| 2026-05-07 17:09 | 35.08761 | -12.21406 | 35963 ft | 546 kts | 33° |
| 2026-05-07 17:10 | 35.14993 | -12.16068 | 35975 ft | 546 kts | 34° |
| 2026-05-07 17:10 | 35.21165 | -12.10770 | 35957 ft | 545 kts | 34° |
| 2026-05-07 17:11 | 35.27381 | -12.05424 | 35959 ft | 545 kts | 34° |
| 2026-05-07 17:11 | 35.33593 | -12.00072 | 35957 ft | 545 kts | 33° |
| 2026-05-07 17:12 | 35.39800 | -11.94715 | 35961 ft | 545 kts | 34° |
| 2026-05-07 17:12 | 35.45953 | -11.89394 | 35962 ft | 545 kts | 34° |
| 2026-05-07 17:13 | 35.52153 | -11.84022 | 35964 ft | 545 kts | 34° |
| 2026-05-07 17:13 | 35.58344 | -11.78647 | 35960 ft | 545 kts | 34° |
| 2026-05-07 17:14 | 35.64533 | -11.73263 | 35963 ft | 545 kts | 34° |
| 2026-05-07 17:14 | 35.70721 | -11.67870 | 35954 ft | 545 kts | 34° |
| 2026-05-07 17:15 | 35.76916 | -11.62459 | 35976 ft | 545 kts | 34° |
| 2026-05-07 17:15 | 35.83411 | -11.57690 | 35972 ft | 543 kts | 24° |
| 2026-05-07 17:16 | 35.90213 | -11.53782 | 35960 ft | 541 kts | 20° |
| 2026-05-07 17:16 | 35.97139 | -11.50137 | 35978 ft | 541 kts | 19° |
| 2026-05-07 17:17 | 36.04117 | -11.46577 | 35966 ft | 541 kts | 19° |
| 2026-05-07 17:17 | 36.11102 | -11.43052 | 35964 ft | 542 kts | 19° |
| 2026-05-07 17:18 | 36.17962 | -11.39145 | 35957 ft | 543 kts | 22° |
| 2026-05-07 17:18 | 36.24808 | -11.35286 | 35966 ft | 543 kts | 21° |
| 2026-05-07 17:19 | 36.31714 | -11.31447 | 35953 ft | 543 kts | 21° |
| 2026-05-07 17:19 | 36.38597 | -11.27592 | 35959 ft | 542 kts | 21° |
| 2026-05-07 17:20 | 36.45470 | -11.23742 | 35954 ft | 542 kts | 21° |
| 2026-05-07 17:20 | 36.52306 | -11.19902 | 35958 ft | 541 kts | 21° |
| 2026-05-07 17:21 | 36.59176 | -11.16036 | 35958 ft | 541 kts | 21° |
| 2026-05-07 17:21 | 36.66043 | -11.12162 | 35958 ft | 541 kts | 21° |
| 2026-05-07 17:22 | 36.72901 | -11.08286 | 35977 ft | 541 kts | 21° |
| 2026-05-07 17:22 | 36.79733 | -11.04416 | 35955 ft | 542 kts | 21° |
| 2026-05-07 17:23 | 36.86619 | -11.00505 | 35954 ft | 542 kts | 22° |
| 2026-05-07 17:23 | 36.93491 | -10.96594 | 35953 ft | 542 kts | 22° |
| 2026-05-07 17:24 | 37.00312 | -10.92703 | 35952 ft | 541 kts | 21° |
| 2026-05-07 17:24 | 37.07160 | -10.88790 | 35951 ft | 540 kts | 21° |
| 2026-05-07 17:25 | 37.13989 | -10.84881 | 35952 ft | 539 kts | 21° |
| 2026-05-07 17:25 | 37.20819 | -10.80963 | 35739 ft | 538 kts | 21° |
| 2026-05-07 17:26 | 37.24199 | -10.79018 | 35502 ft | 529 kts | 21° |
| 2026-05-07 17:26 | 37.27529 | -10.77099 | 35253 ft | 525 kts | 21° |
| 2026-05-07 17:26 | 37.30812 | -10.75207 | 35016 ft | 525 kts | 21° |
| 2026-05-07 17:26 | 37.34137 | -10.73290 | 34763 ft | 525 kts | 21° |
| 2026-05-07 17:27 | 37.37455 | -10.71375 | 34523 ft | 525 kts | 21° |
| 2026-05-07 17:27 | 37.40782 | -10.69452 | 34283 ft | 525 kts | 22° |
| 2026-05-07 17:27 | 37.44106 | -10.67528 | 34039 ft | 526 kts | 22° |
| 2026-05-07 17:27 | 37.47440 | -10.65597 | 33800 ft | 527 kts | 22° |
| 2026-05-07 17:28 | 37.50766 | -10.63668 | 33524 ft | 526 kts | 22° |
| 2026-05-07 17:28 | 37.54056 | -10.61757 | 33248 ft | 525 kts | 22° |
| 2026-05-07 17:28 | 37.57366 | -10.59831 | 32899 ft | 524 kts | 22° |
| 2026-05-07 17:28 | 37.60678 | -10.57902 | 32248 ft | 519 kts | 22° |
| 2026-05-07 17:29 | 37.63933 | -10.56002 | 31592 ft | 511 kts | 22° |
| 2026-05-07 17:29 | 37.67138 | -10.54128 | 30826 ft | 505 kts | 22° |
| 2026-05-07 17:29 | 37.70306 | -10.52276 | 29981 ft | 499 kts | 23° |
| 2026-05-07 17:29 | 37.73332 | -10.50502 | 28920 ft | 471 kts | 23° |
| 2026-05-07 17:30 | 37.76222 | -10.48801 | 28038 ft | 446 kts | 23° |
| 2026-05-07 17:30 | 37.78993 | -10.47173 | 27131 ft | 433 kts | 23° |
| 2026-05-07 17:30 | 37.81691 | -10.45591 | 26257 ft | 421 kts | 23° |
| 2026-05-07 17:30 | 37.84208 | -10.43789 | 25357 ft | 413 kts | 38° |
| 2026-05-07 17:31 | 37.86289 | -10.41345 | 24789 ft | 404 kts | 47° |
| 2026-05-07 17:31 | 37.88206 | -10.38802 | 24446 ft | 394 kts | 44° |
| 2026-05-07 17:31 | 37.90198 | -10.36454 | 24119 ft | 390 kts | 41° |
| 2026-05-07 17:31 | 37.92230 | -10.34170 | 23778 ft | 389 kts | 42° |
| 2026-05-07 17:32 | 37.94181 | -10.31865 | 23431 ft | 387 kts | 45° |
| 2026-05-07 17:32 | 37.96078 | -10.29461 | 23020 ft | 384 kts | 46° |
| 2026-05-07 17:32 | 37.97926 | -10.27023 | 22618 ft | 382 kts | 47° |
| 2026-05-07 17:32 | 37.99162 | -10.25377 | 22348 ft | 380 kts | 47° |
| 2026-05-07 17:33 | 38.01568 | -10.22172 | 21831 ft | 377 kts | 47° |
| 2026-05-07 17:33 | 38.03379 | -10.19762 | 21439 ft | 375 kts | 47° |
| 2026-05-07 17:33 | 38.05175 | -10.17361 | 21067 ft | 373 kts | 47° |
| 2026-05-07 17:33 | 38.06956 | -10.14974 | 20701 ft | 370 kts | 47° |
| 2026-05-07 17:34 | 38.08718 | -10.12601 | 20315 ft | 368 kts | 47° |
| 2026-05-07 17:34 | 38.10447 | -10.10260 | 19951 ft | 366 kts | 47° |
| 2026-05-07 17:34 | 38.12190 | -10.07901 | 19590 ft | 365 kts | 47° |
| 2026-05-07 17:34 | 38.13923 | -10.05558 | 19219 ft | 363 kts | 47° |
| 2026-05-07 17:35 | 38.15662 | -10.03235 | 18877 ft | 361 kts | 43° |
| 2026-05-07 17:35 | 38.17663 | -10.01350 | 18497 ft | 356 kts | 25° |
| 2026-05-07 17:35 | 38.19919 | -10.00067 | 18169 ft | 353 kts | 19° |
| 2026-05-07 17:35 | 38.22192 | -9.98907 | 17786 ft | 352 kts | 20° |
| 2026-05-07 17:36 | 38.24424 | -9.97705 | 17399 ft | 350 kts | 22° |
| 2026-05-07 17:36 | 38.26638 | -9.96463 | 17004 ft | 346 kts | 22° |
| 2026-05-07 17:36 | 38.28829 | -9.95225 | 16547 ft | 343 kts | 23° |
| 2026-05-07 17:36 | 38.30997 | -9.94007 | 16039 ft | 339 kts | 23° |
| 2026-05-07 17:37 | 38.33130 | -9.92812 | 15655 ft | 331 kts | 23° |
| 2026-05-07 17:37 | 38.35213 | -9.91644 | 15277 ft | 323 kts | 24° |
| 2026-05-07 17:37 | 38.37256 | -9.90497 | 14913 ft | 317 kts | 24° |
| 2026-05-07 17:37 | 38.39257 | -9.89373 | 14551 ft | 311 kts | 24° |
| 2026-05-07 17:38 | 38.41223 | -9.88268 | 14189 ft | 305 kts | 25° |
| 2026-05-07 17:38 | 38.43152 | -9.87184 | 13838 ft | 300 kts | 25° |
| 2026-05-07 17:38 | 38.45051 | -9.86116 | 13461 ft | 296 kts | 25° |
| 2026-05-07 17:38 | 38.46925 | -9.85060 | 13050 ft | 292 kts | 25° |
| 2026-05-07 17:39 | 38.48754 | -9.84039 | 12671 ft | 288 kts | 25° |
| 2026-05-07 17:39 | 38.50585 | -9.83033 | 12265 ft | 285 kts | 24° |
| 2026-05-07 17:39 | 38.52395 | -9.82030 | 11839 ft | 283 kts | 24° |
| 2026-05-07 17:39 | 38.54203 | -9.81018 | 11415 ft | 282 kts | 24° |
| 2026-05-07 17:40 | 38.55969 | -9.80023 | 11007 ft | 280 kts | 25° |
| 2026-05-07 17:40 | 38.57770 | -9.79004 | 10575 ft | 279 kts | 25° |
| 2026-05-07 17:40 | 38.59513 | -9.78014 | 10174 ft | 277 kts | 25° |
| 2026-05-07 17:40 | 38.61268 | -9.77014 | 9844 ft | 273 kts | 25° |
| 2026-05-07 17:41 | 38.62987 | -9.76032 | 9590 ft | 269 kts | 25° |
| 2026-05-07 17:41 | 38.64697 | -9.75051 | 9333 ft | 269 kts | 25° |
| 2026-05-07 17:41 | 38.66359 | -9.73972 | 9031 ft | 268 kts | 39° |
| 2026-05-07 17:41 | 38.67596 | -9.72251 | 8745 ft | 261 kts | 58° |
| 2026-05-07 17:42 | 38.68495 | -9.70232 | 8513 ft | 261 kts | 65° |
| 2026-05-07 17:42 | 38.69267 | -9.68155 | 8265 ft | 261 kts | 67° |
| 2026-05-07 17:42 | 38.69741 | -9.65956 | 8001 ft | 254 kts | 92° |
| 2026-05-07 17:42 | 38.69364 | -9.63825 | 7882 ft | 243 kts | 124° |
| 2026-05-07 17:43 | 38.68646 | -9.62717 | 7886 ft | 238 kts | 144° |
| 2026-05-07 17:43 | 38.67235 | -9.61611 | 7982 ft | 240 kts | 156° |
| 2026-05-07 17:43 | 38.65258 | -9.60311 | 7975 ft | 242 kts | 153° |
| 2026-05-07 17:43 | 38.64292 | -9.59578 | 7950 ft | 243 kts | 150° |
| 2026-05-07 17:44 | 38.62876 | -9.58403 | 7940 ft | 243 kts | 149° |
| 2026-05-07 17:44 | 38.61465 | -9.57217 | 7934 ft | 242 kts | 153° |
| 2026-05-07 17:44 | 38.59947 | -9.56318 | 7928 ft | 239 kts | 164° |
| 2026-05-07 17:44 | 38.58342 | -9.55775 | 7938 ft | 239 kts | 169° |
| 2026-05-07 17:45 | 38.56719 | -9.55297 | 7936 ft | 239 kts | 168° |
| 2026-05-07 17:45 | 38.55111 | -9.54758 | 7958 ft | 237 kts | 167° |
| 2026-05-07 17:45 | 38.53509 | -9.54207 | 7955 ft | 239 kts | 168° |
| 2026-05-07 17:45 | 38.51927 | -9.53650 | 7926 ft | 240 kts | 163° |
| 2026-05-07 17:46 | 38.50448 | -9.52661 | 7889 ft | 243 kts | 142° |
| 2026-05-07 17:46 | 38.49463 | -9.50896 | 7853 ft | 250 kts | 116° |
| 2026-05-07 17:46 | 38.48970 | -9.48748 | 7519 ft | 254 kts | 104° |
| 2026-05-07 17:46 | 38.48685 | -9.46557 | 7139 ft | 245 kts | 100° |
| 2026-05-07 17:47 | 38.48478 | -9.44458 | 6802 ft | 233 kts | 99° |
| 2026-05-07 17:47 | 38.48306 | -9.42453 | 6395 ft | 227 kts | 99° |
| 2026-05-07 17:47 | 38.48393 | -9.40472 | 5941 ft | 226 kts | 76° |
| 2026-05-07 17:47 | 38.49022 | -9.38661 | 5569 ft | 220 kts | 63° |
| 2026-05-07 17:48 | 38.49771 | -9.36983 | 5226 ft | 215 kts | 59° |
| 2026-05-07 17:48 | 38.50531 | -9.35355 | 4917 ft | 210 kts | 58° |
| 2026-05-07 17:48 | 38.51257 | -9.33781 | 4764 ft | 205 kts | 58° |
| 2026-05-07 17:48 | 38.51972 | -9.32209 | 4672 ft | 204 kts | 58° |
| 2026-05-07 17:49 | 38.52686 | -9.30638 | 4543 ft | 203 kts | 58° |
| 2026-05-07 17:49 | 38.53397 | -9.29073 | 4413 ft | 204 kts | 58° |
| 2026-05-07 17:49 | 38.54102 | -9.27497 | 4300 ft | 204 kts | 58° |
| 2026-05-07 17:49 | 38.54918 | -9.26054 | 4304 ft | 199 kts | 39° |
| 2026-05-07 17:50 | 38.56108 | -9.25215 | 4367 ft | 198 kts | 18° |
| 2026-05-07 17:50 | 38.57404 | -9.24602 | 4305 ft | 199 kts | 17° |
| 2026-05-07 17:50 | 38.58690 | -9.23945 | 4108 ft | 198 kts | 19° |
| 2026-05-07 17:50 | 38.59957 | -9.23267 | 3876 ft | 196 kts | 19° |
| 2026-05-07 17:51 | 38.61195 | -9.22605 | 3688 ft | 193 kts | 18° |
| 2026-05-07 17:51 | 38.62434 | -9.21945 | 3446 ft | 192 kts | 18° |
| 2026-05-07 17:51 | 38.63654 | -9.21296 | 3137 ft | 184 kts | 18° |
| 2026-05-07 17:51 | 38.64780 | -9.20695 | 2877 ft | 168 kts | 18° |
| 2026-05-07 17:52 | 38.65857 | -9.20125 | 2694 ft | 168 kts | 17° |
| 2026-05-07 17:52 | 38.66914 | -9.19563 | 2467 ft | 162 kts | 17° |
| 2026-05-07 17:52 | 38.67971 | -9.19002 | 2225 ft | 166 kts | 19° |
| 2026-05-07 17:52 | 38.69040 | -9.18438 | 1993 ft | 167 kts | 17° |
| 2026-05-07 17:53 | 38.70119 | -9.17863 | 1746 ft | 169 kts | 18° |
| 2026-05-07 17:53 | 38.71199 | -9.17286 | 1520 ft | 166 kts | 18° |
| 2026-05-07 17:53 | 38.72238 | -9.16730 | 1307 ft | 161 kts | 18° |
| 2026-05-07 17:53 | 38.73265 | -9.16178 | 1078 ft | 158 kts | 18° |
| 2026-05-07 17:54 | 38.74279 | -9.15657 | 828 ft | 157 kts | 17° |
| 2026-05-07 17:54 | 38.75284 | -9.15112 | 624 ft | 155 kts | 18° |
| 2026-05-07 17:54 | 38.76301 | -9.14568 | 452 ft | 164 kts | 16° |
| 2026-05-07 17:54 | 38.77312 | -9.14027 | 370 ft | 140 kts | 19° |
| 2026-05-07 17:55 | 38.78065 | -9.13630 | 373 ft | 94 kts | 22° |
| 2026-05-07 17:55 | 38.78446 | -9.13426 | 370 ft | 21 kts | 27° |
| 2026-05-07 17:55 | 38.78536 | -9.13327 | 365 ft | 16 kts | 77° |
| 2026-05-07 17:55 | 38.78505 | -9.13242 | 369 ft | 11 kts | 150° |
| 2026-05-07 17:56 | 38.78428 | -9.13220 | 370 ft | 9 kts | 181° |
| 2026-05-07 17:56 | 38.78374 | -9.13233 | 370 ft | 3 kts | 204° |
| 2026-05-07 17:56 | 38.78341 | -9.13252 | 370 ft | 7 kts | 204° |
| 2026-05-07 17:56 | 38.78286 | -9.13283 | 366 ft | 10 kts | 202° |
| 2026-05-07 17:57 | 38.78250 | -9.13302 | 368 ft | 2 kts | 201° |
| 2026-05-07 17:57 | 38.78233 | -9.13310 | 365 ft | 6 kts | 201° |
| 2026-05-07 17:57 | 38.78161 | -9.13347 | 371 ft | 11 kts | 202° |
| 2026-05-07 17:57 | 38.78085 | -9.13387 | 364 ft | 12 kts | 203° |
| 2026-05-07 17:58 | 38.77999 | -9.13409 | 362 ft | 14 kts | 176° |
| 2026-05-07 17:58 | 38.77887 | -9.13383 | 359 ft | 14 kts | 166° |
| 2026-05-07 17:58 | 38.77826 | -9.13364 | 356 ft | 10 kts | 166° |
| 2026-05-07 17:58 | 38.77745 | -9.13326 | 352 ft | 13 kts | 135° |
| 2026-05-07 17:59 | 38.77747 | -9.13226 | 342 ft | 12 kts | 77° |
| 2026-05-07 17:59 | 38.77754 | -9.13185 | 350 ft | 1 kts | 76° |
| 2026-05-07 17:59 | 38.77756 | -9.13173 | 347 ft | 2 kts | 76° |
| 2026-05-07 17:59 | 38.77762 | -9.13143 | 342 ft | 5 kts | 77° |
| 2026-05-07 18:00 | 38.77770 | -9.13095 | 356 ft | 6 kts | 77° |
| 2026-05-07 18:00 | 38.77798 | -9.13021 | 331 ft | 11 kts | 56° |
| 2026-05-07 18:00 | 38.77852 | -9.12956 | 330 ft | 11 kts | 38° |
| 2026-05-07 18:00 | 38.77894 | -9.12935 | 335 ft | 5 kts | 351° |
| 2026-05-07 18:01 | 38.77912 | -9.12950 | 330 ft | 2 kts | 313° |
| 2026-05-07 18:01 | 38.77920 | -9.12963 | 330 ft | 2 kts | 304° |
| 2026-05-07 18:01 | 38.77929 | -9.12976 | 330 ft | 2 kts | 316° |
| 2026-05-07 18:01 | 38.77936 | -9.12985 | 330 ft | 1 kts | 318° |
| 2026-05-07 18:02 | 38.77937 | -9.12985 | 330 ft | 0 kts | 318° |